<?xml version="1.0" encoding="UTF-8" standalone="no" ?>
<gpx xmlns="http://www.topografix.com/GPX/1/1" xmlns:xsi="http://www.w3.org/2001/XMLSchema-instance" xsi:schemaLocation="http://www.topografix.com/GPX/1/1 http://www.topografix.com/GPX/1/1/gpx.xsd" version="1.1" creator="VisuGPX - https://www.visugpx.com">
  <metadata>
    <name>Lac de Bastampe</name>
    <desc><![CDATA[Départ du parking d'Agnouède.
Itinéraire en aller/retour.]]></desc>
  </metadata>
  <trk>
    <name><![CDATA[Lac de Bastampe]]></name>
    <trkseg>
      <trkpt lat="42.85815" lon="-0.01505">
        <ele>1035.1</ele>
        <time>2017-11-03T07:57:40Z</time>
      </trkpt>
      <trkpt lat="42.85815" lon="-0.01506">
        <ele>1035.1</ele>
        <time>2017-11-03T07:57:41Z</time>
      </trkpt>
      <trkpt lat="42.85806" lon="-0.01506">
        <ele>1025.9</ele>
        <time>2017-11-03T08:00:54Z</time>
      </trkpt>
      <trkpt lat="42.85789" lon="-0.01504">
        <ele>1030.6</ele>
        <time>2017-11-03T08:01:13Z</time>
      </trkpt>
      <trkpt lat="42.85781" lon="-0.01508">
        <ele>1035.1</ele>
        <time>2017-11-03T08:01:25Z</time>
      </trkpt>
      <trkpt lat="42.85773" lon="-0.01513">
        <ele>1036.3</ele>
        <time>2017-11-03T08:01:34Z</time>
      </trkpt>
      <trkpt lat="42.85766" lon="-0.0152">
        <ele>1037.4</ele>
        <time>2017-11-03T08:01:43Z</time>
      </trkpt>
      <trkpt lat="42.85766" lon="-0.01531">
        <ele>1037.4</ele>
        <time>2017-11-03T08:01:54Z</time>
      </trkpt>
      <trkpt lat="42.85766" lon="-0.01533">
        <ele>1037.5</ele>
        <time>2017-11-03T08:01:55Z</time>
      </trkpt>
      <trkpt lat="42.85767" lon="-0.01555">
        <ele>1042.7</ele>
        <time>2017-11-03T08:02:19Z</time>
      </trkpt>
      <trkpt lat="42.85758" lon="-0.01552">
        <ele>1043.5</ele>
        <time>2017-11-03T08:02:37Z</time>
      </trkpt>
      <trkpt lat="42.85752" lon="-0.01544">
        <ele>1042.5</ele>
        <time>2017-11-03T08:02:49Z</time>
      </trkpt>
      <trkpt lat="42.85745" lon="-0.01536">
        <ele>1042.9</ele>
        <time>2017-11-03T08:03:01Z</time>
      </trkpt>
      <trkpt lat="42.85745" lon="-0.01536">
        <ele>1043.1</ele>
        <time>2017-11-03T08:03:02Z</time>
      </trkpt>
      <trkpt lat="42.85731" lon="-0.01525">
        <ele>1048.4</ele>
        <time>2017-11-03T08:03:28Z</time>
      </trkpt>
      <trkpt lat="42.85725" lon="-0.01517">
        <ele>1048.7</ele>
        <time>2017-11-03T08:03:43Z</time>
      </trkpt>
      <trkpt lat="42.85718" lon="-0.01511">
        <ele>1047.4</ele>
        <time>2017-11-03T08:03:54Z</time>
      </trkpt>
      <trkpt lat="42.85709" lon="-0.01508">
        <ele>1046.5</ele>
        <time>2017-11-03T08:04:02Z</time>
      </trkpt>
      <trkpt lat="42.85701" lon="-0.01511">
        <ele>1046.6</ele>
        <time>2017-11-03T08:04:12Z</time>
      </trkpt>
      <trkpt lat="42.857" lon="-0.01511">
        <ele>1046.8</ele>
        <time>2017-11-03T08:04:13Z</time>
      </trkpt>
      <trkpt lat="42.85686" lon="-0.0152">
        <ele>1047.9</ele>
        <time>2017-11-03T08:04:29Z</time>
      </trkpt>
      <trkpt lat="42.85677" lon="-0.01523">
        <ele>1051.6</ele>
        <time>2017-11-03T08:04:36Z</time>
      </trkpt>
      <trkpt lat="42.85669" lon="-0.01525">
        <ele>1055.9</ele>
        <time>2017-11-03T08:04:46Z</time>
      </trkpt>
      <trkpt lat="42.85661" lon="-0.01519">
        <ele>1055.5</ele>
        <time>2017-11-03T08:04:53Z</time>
      </trkpt>
      <trkpt lat="42.85654" lon="-0.01513">
        <ele>1055.9</ele>
        <time>2017-11-03T08:05:00Z</time>
      </trkpt>
      <trkpt lat="42.85646" lon="-0.01511">
        <ele>1056.7</ele>
        <time>2017-11-03T08:05:06Z</time>
      </trkpt>
      <trkpt lat="42.85638" lon="-0.01508">
        <ele>1057.5</ele>
        <time>2017-11-03T08:05:13Z</time>
      </trkpt>
      <trkpt lat="42.85637" lon="-0.01508">
        <ele>1057.6</ele>
        <time>2017-11-03T08:05:14Z</time>
      </trkpt>
      <trkpt lat="42.85622" lon="-0.01507">
        <ele>1060.4</ele>
        <time>2017-11-03T08:05:28Z</time>
      </trkpt>
      <trkpt lat="42.85613" lon="-0.01507">
        <ele>1059.5</ele>
        <time>2017-11-03T08:05:38Z</time>
      </trkpt>
      <trkpt lat="42.85605" lon="-0.01509">
        <ele>1060.8</ele>
        <time>2017-11-03T08:05:48Z</time>
      </trkpt>
      <trkpt lat="42.85597" lon="-0.01505">
        <ele>1062.9</ele>
        <time>2017-11-03T08:05:57Z</time>
      </trkpt>
      <trkpt lat="42.85589" lon="-0.015">
        <ele>1061.9</ele>
        <time>2017-11-03T08:06:07Z</time>
      </trkpt>
      <trkpt lat="42.8558" lon="-0.01503">
        <ele>1065</ele>
        <time>2017-11-03T08:06:29Z</time>
      </trkpt>
      <trkpt lat="42.8558" lon="-0.01504">
        <ele>1064.9</ele>
        <time>2017-11-03T08:06:30Z</time>
      </trkpt>
      <trkpt lat="42.85572" lon="-0.0152">
        <ele>1068.5</ele>
        <time>2017-11-03T08:07:33Z</time>
      </trkpt>
      <trkpt lat="42.85571" lon="-0.0152">
        <ele>1068</ele>
        <time>2017-11-03T08:07:34Z</time>
      </trkpt>
      <trkpt lat="42.85568" lon="-0.01543">
        <ele>1075.7</ele>
        <time>2017-11-03T08:08:46Z</time>
      </trkpt>
      <trkpt lat="42.85568" lon="-0.01545">
        <ele>1075.9</ele>
        <time>2017-11-03T08:08:47Z</time>
      </trkpt>
      <trkpt lat="42.85575" lon="-0.01564">
        <ele>1080.4</ele>
        <time>2017-11-03T08:09:12Z</time>
      </trkpt>
      <trkpt lat="42.85579" lon="-0.01574">
        <ele>1081.4</ele>
        <time>2017-11-03T08:09:22Z</time>
      </trkpt>
      <trkpt lat="42.85581" lon="-0.01586">
        <ele>1083.9</ele>
        <time>2017-11-03T08:09:39Z</time>
      </trkpt>
      <trkpt lat="42.85572" lon="-0.01584">
        <ele>1088</ele>
        <time>2017-11-03T08:10:11Z</time>
      </trkpt>
      <trkpt lat="42.85571" lon="-0.01583">
        <ele>1088.3</ele>
        <time>2017-11-03T08:10:12Z</time>
      </trkpt>
      <trkpt lat="42.85557" lon="-0.01572">
        <ele>1096</ele>
        <time>2017-11-03T08:10:41Z</time>
      </trkpt>
      <trkpt lat="42.85552" lon="-0.0157">
        <ele>1096.8</ele>
        <time>2017-11-03T08:10:49Z</time>
      </trkpt>
      <trkpt lat="42.85544" lon="-0.01563">
        <ele>1096.6</ele>
        <time>2017-11-03T08:10:59Z</time>
      </trkpt>
      <trkpt lat="42.85536" lon="-0.01562">
        <ele>1097.2</ele>
        <time>2017-11-03T08:11:05Z</time>
      </trkpt>
      <trkpt lat="42.85528" lon="-0.01562">
        <ele>1098.2</ele>
        <time>2017-11-03T08:11:11Z</time>
      </trkpt>
      <trkpt lat="42.8552" lon="-0.0156">
        <ele>1099.7</ele>
        <time>2017-11-03T08:11:18Z</time>
      </trkpt>
      <trkpt lat="42.85518" lon="-0.0156">
        <ele>1099.5</ele>
        <time>2017-11-03T08:11:19Z</time>
      </trkpt>
      <trkpt lat="42.85503" lon="-0.01561">
        <ele>1098.9</ele>
        <time>2017-11-03T08:11:34Z</time>
      </trkpt>
      <trkpt lat="42.85494" lon="-0.01561">
        <ele>1099.4</ele>
        <time>2017-11-03T08:11:41Z</time>
      </trkpt>
      <trkpt lat="42.85486" lon="-0.01556">
        <ele>1098.7</ele>
        <time>2017-11-03T08:11:49Z</time>
      </trkpt>
      <trkpt lat="42.85478" lon="-0.01551">
        <ele>1099.1</ele>
        <time>2017-11-03T08:11:56Z</time>
      </trkpt>
      <trkpt lat="42.8547" lon="-0.01546">
        <ele>1099.6</ele>
        <time>2017-11-03T08:12:04Z</time>
      </trkpt>
      <trkpt lat="42.85462" lon="-0.01542">
        <ele>1099.7</ele>
        <time>2017-11-03T08:12:12Z</time>
      </trkpt>
      <trkpt lat="42.85454" lon="-0.0154">
        <ele>1101.8</ele>
        <time>2017-11-03T08:12:19Z</time>
      </trkpt>
      <trkpt lat="42.85453" lon="-0.01539">
        <ele>1102.1</ele>
        <time>2017-11-03T08:12:20Z</time>
      </trkpt>
      <trkpt lat="42.85439" lon="-0.0154">
        <ele>1103.9</ele>
        <time>2017-11-03T08:12:31Z</time>
      </trkpt>
      <trkpt lat="42.85431" lon="-0.01538">
        <ele>1103</ele>
        <time>2017-11-03T08:12:37Z</time>
      </trkpt>
      <trkpt lat="42.85422" lon="-0.01541">
        <ele>1104.5</ele>
        <time>2017-11-03T08:12:45Z</time>
      </trkpt>
      <trkpt lat="42.85413" lon="-0.01541">
        <ele>1106.7</ele>
        <time>2017-11-03T08:12:54Z</time>
      </trkpt>
      <trkpt lat="42.85405" lon="-0.01537">
        <ele>1108</ele>
        <time>2017-11-03T08:13:02Z</time>
      </trkpt>
      <trkpt lat="42.85397" lon="-0.01537">
        <ele>1109.7</ele>
        <time>2017-11-03T08:13:13Z</time>
      </trkpt>
      <trkpt lat="42.85388" lon="-0.01536">
        <ele>1111.5</ele>
        <time>2017-11-03T08:13:24Z</time>
      </trkpt>
      <trkpt lat="42.85387" lon="-0.01536">
        <ele>1111.7</ele>
        <time>2017-11-03T08:13:25Z</time>
      </trkpt>
      <trkpt lat="42.85371" lon="-0.01542">
        <ele>1114.9</ele>
        <time>2017-11-03T08:13:44Z</time>
      </trkpt>
      <trkpt lat="42.85363" lon="-0.01543">
        <ele>1115.3</ele>
        <time>2017-11-03T08:13:52Z</time>
      </trkpt>
      <trkpt lat="42.85355" lon="-0.01543">
        <ele>1116.9</ele>
        <time>2017-11-03T08:14:01Z</time>
      </trkpt>
      <trkpt lat="42.85347" lon="-0.01544">
        <ele>1118.5</ele>
        <time>2017-11-03T08:14:09Z</time>
      </trkpt>
      <trkpt lat="42.85339" lon="-0.01548">
        <ele>1120.2</ele>
        <time>2017-11-03T08:14:21Z</time>
      </trkpt>
      <trkpt lat="42.8533" lon="-0.01547">
        <ele>1123</ele>
        <time>2017-11-03T08:14:43Z</time>
      </trkpt>
      <trkpt lat="42.85329" lon="-0.01547">
        <ele>1123.1</ele>
        <time>2017-11-03T08:14:44Z</time>
      </trkpt>
      <trkpt lat="42.85313" lon="-0.01555">
        <ele>1125.9</ele>
        <time>2017-11-03T08:15:02Z</time>
      </trkpt>
      <trkpt lat="42.85305" lon="-0.01551">
        <ele>1128.5</ele>
        <time>2017-11-03T08:15:11Z</time>
      </trkpt>
      <trkpt lat="42.85297" lon="-0.01553">
        <ele>1131.2</ele>
        <time>2017-11-03T08:15:21Z</time>
      </trkpt>
      <trkpt lat="42.85288" lon="-0.01555">
        <ele>1132.2</ele>
        <time>2017-11-03T08:15:31Z</time>
      </trkpt>
      <trkpt lat="42.8528" lon="-0.0156">
        <ele>1134.7</ele>
        <time>2017-11-03T08:15:41Z</time>
      </trkpt>
      <trkpt lat="42.85272" lon="-0.0156">
        <ele>1135.9</ele>
        <time>2017-11-03T08:15:51Z</time>
      </trkpt>
      <trkpt lat="42.85271" lon="-0.01559">
        <ele>1135.8</ele>
        <time>2017-11-03T08:15:52Z</time>
      </trkpt>
      <trkpt lat="42.85257" lon="-0.01547">
        <ele>1138.9</ele>
        <time>2017-11-03T08:16:10Z</time>
      </trkpt>
      <trkpt lat="42.85249" lon="-0.01542">
        <ele>1139.4</ele>
        <time>2017-11-03T08:16:18Z</time>
      </trkpt>
      <trkpt lat="42.85241" lon="-0.01539">
        <ele>1140.1</ele>
        <time>2017-11-03T08:16:27Z</time>
      </trkpt>
      <trkpt lat="42.85233" lon="-0.01537">
        <ele>1140.7</ele>
        <time>2017-11-03T08:16:36Z</time>
      </trkpt>
      <trkpt lat="42.85224" lon="-0.01534">
        <ele>1141</ele>
        <time>2017-11-03T08:16:44Z</time>
      </trkpt>
      <trkpt lat="42.85216" lon="-0.01532">
        <ele>1142.3</ele>
        <time>2017-11-03T08:16:53Z</time>
      </trkpt>
      <trkpt lat="42.85215" lon="-0.01532">
        <ele>1142.7</ele>
        <time>2017-11-03T08:16:54Z</time>
      </trkpt>
      <trkpt lat="42.85198" lon="-0.01529">
        <ele>1145.2</ele>
        <time>2017-11-03T08:17:16Z</time>
      </trkpt>
      <trkpt lat="42.85196" lon="-0.01541">
        <ele>1150.6</ele>
        <time>2017-11-03T08:17:43Z</time>
      </trkpt>
      <trkpt lat="42.85195" lon="-0.01552">
        <ele>1152.3</ele>
        <time>2017-11-03T08:18:01Z</time>
      </trkpt>
      <trkpt lat="42.85195" lon="-0.01553">
        <ele>1152.4</ele>
        <time>2017-11-03T08:18:02Z</time>
      </trkpt>
      <trkpt lat="42.85186" lon="-0.01565">
        <ele>1158.3</ele>
        <time>2017-11-03T08:18:33Z</time>
      </trkpt>
      <trkpt lat="42.85178" lon="-0.01562">
        <ele>1160.6</ele>
        <time>2017-11-03T08:18:48Z</time>
      </trkpt>
      <trkpt lat="42.8517" lon="-0.01564">
        <ele>1162.1</ele>
        <time>2017-11-03T08:19:02Z</time>
      </trkpt>
      <trkpt lat="42.85169" lon="-0.01565">
        <ele>1162.2</ele>
        <time>2017-11-03T08:19:03Z</time>
      </trkpt>
      <trkpt lat="42.85169" lon="-0.01586">
        <ele>1165.6</ele>
        <time>2017-11-03T08:19:42Z</time>
      </trkpt>
      <trkpt lat="42.85174" lon="-0.01596">
        <ele>1166.5</ele>
        <time>2017-11-03T08:19:52Z</time>
      </trkpt>
      <trkpt lat="42.85181" lon="-0.01602">
        <ele>1165.8</ele>
        <time>2017-11-03T08:20:00Z</time>
      </trkpt>
      <trkpt lat="42.85188" lon="-0.01608">
        <ele>1167.1</ele>
        <time>2017-11-03T08:20:13Z</time>
      </trkpt>
      <trkpt lat="42.85189" lon="-0.01609">
        <ele>1167.5</ele>
        <time>2017-11-03T08:20:14Z</time>
      </trkpt>
      <trkpt lat="42.85203" lon="-0.01621">
        <ele>1171</ele>
        <time>2017-11-03T08:20:40Z</time>
      </trkpt>
      <trkpt lat="42.85211" lon="-0.01624">
        <ele>1172.1</ele>
        <time>2017-11-03T08:20:48Z</time>
      </trkpt>
      <trkpt lat="42.85218" lon="-0.0163">
        <ele>1174</ele>
        <time>2017-11-03T08:20:59Z</time>
      </trkpt>
      <trkpt lat="42.85225" lon="-0.01636">
        <ele>1175.2</ele>
        <time>2017-11-03T08:21:06Z</time>
      </trkpt>
      <trkpt lat="42.85234" lon="-0.01639">
        <ele>1176.1</ele>
        <time>2017-11-03T08:21:15Z</time>
      </trkpt>
      <trkpt lat="42.85234" lon="-0.01639">
        <ele>1175.7</ele>
        <time>2017-11-03T08:21:16Z</time>
      </trkpt>
      <trkpt lat="42.85249" lon="-0.01648">
        <ele>1179.8</ele>
        <time>2017-11-03T08:21:34Z</time>
      </trkpt>
      <trkpt lat="42.85258" lon="-0.01652">
        <ele>1181.9</ele>
        <time>2017-11-03T08:21:46Z</time>
      </trkpt>
      <trkpt lat="42.85266" lon="-0.01655">
        <ele>1184.6</ele>
        <time>2017-11-03T08:21:58Z</time>
      </trkpt>
      <trkpt lat="42.85275" lon="-0.01654">
        <ele>1187.2</ele>
        <time>2017-11-03T08:22:12Z</time>
      </trkpt>
      <trkpt lat="42.85281" lon="-0.01661">
        <ele>1187.5</ele>
        <time>2017-11-03T08:22:21Z</time>
      </trkpt>
      <trkpt lat="42.85282" lon="-0.01663">
        <ele>1187.3</ele>
        <time>2017-11-03T08:22:22Z</time>
      </trkpt>
      <trkpt lat="42.85297" lon="-0.01669">
        <ele>1189.4</ele>
        <time>2017-11-03T08:22:43Z</time>
      </trkpt>
      <trkpt lat="42.85305" lon="-0.01672">
        <ele>1192.7</ele>
        <time>2017-11-03T08:22:56Z</time>
      </trkpt>
      <trkpt lat="42.85313" lon="-0.01677">
        <ele>1194.6</ele>
        <time>2017-11-03T08:23:12Z</time>
      </trkpt>
      <trkpt lat="42.85321" lon="-0.0168">
        <ele>1196.6</ele>
        <time>2017-11-03T08:23:24Z</time>
      </trkpt>
      <trkpt lat="42.85322" lon="-0.0168">
        <ele>1197</ele>
        <time>2017-11-03T08:23:25Z</time>
      </trkpt>
      <trkpt lat="42.85338" lon="-0.01683">
        <ele>1200.7</ele>
        <time>2017-11-03T08:23:45Z</time>
      </trkpt>
      <trkpt lat="42.85346" lon="-0.01685">
        <ele>1200.5</ele>
        <time>2017-11-03T08:23:55Z</time>
      </trkpt>
      <trkpt lat="42.85355" lon="-0.01686">
        <ele>1200.8</ele>
        <time>2017-11-03T08:24:23Z</time>
      </trkpt>
      <trkpt lat="42.85364" lon="-0.01687">
        <ele>1202.3</ele>
        <time>2017-11-03T08:27:46Z</time>
      </trkpt>
      <trkpt lat="42.85364" lon="-0.01687">
        <ele>1202</ele>
        <time>2017-11-03T08:27:47Z</time>
      </trkpt>
      <trkpt lat="42.85377" lon="-0.01702">
        <ele>1204.3</ele>
        <time>2017-11-03T08:28:13Z</time>
      </trkpt>
      <trkpt lat="42.85381" lon="-0.01712">
        <ele>1207.6</ele>
        <time>2017-11-03T08:28:29Z</time>
      </trkpt>
      <trkpt lat="42.85388" lon="-0.0172">
        <ele>1208.1</ele>
        <time>2017-11-03T08:28:41Z</time>
      </trkpt>
      <trkpt lat="42.85395" lon="-0.01726">
        <ele>1209.2</ele>
        <time>2017-11-03T08:28:52Z</time>
      </trkpt>
      <trkpt lat="42.85395" lon="-0.01726">
        <ele>1209.1</ele>
        <time>2017-11-03T08:28:53Z</time>
      </trkpt>
      <trkpt lat="42.85406" lon="-0.01743">
        <ele>1209.3</ele>
        <time>2017-11-03T08:29:11Z</time>
      </trkpt>
      <trkpt lat="42.85413" lon="-0.01749">
        <ele>1209.5</ele>
        <time>2017-11-03T08:29:18Z</time>
      </trkpt>
      <trkpt lat="42.85419" lon="-0.01758">
        <ele>1210</ele>
        <time>2017-11-03T08:29:25Z</time>
      </trkpt>
      <trkpt lat="42.85423" lon="-0.01768">
        <ele>1209</ele>
        <time>2017-11-03T08:29:33Z</time>
      </trkpt>
      <trkpt lat="42.85426" lon="-0.01779">
        <ele>1210.2</ele>
        <time>2017-11-03T08:29:43Z</time>
      </trkpt>
      <trkpt lat="42.85425" lon="-0.01791">
        <ele>1212.2</ele>
        <time>2017-11-03T08:29:55Z</time>
      </trkpt>
      <trkpt lat="42.85424" lon="-0.01792">
        <ele>1212.5</ele>
        <time>2017-11-03T08:29:56Z</time>
      </trkpt>
      <trkpt lat="42.8542" lon="-0.01813">
        <ele>1215.2</ele>
        <time>2017-11-03T08:30:16Z</time>
      </trkpt>
      <trkpt lat="42.85415" lon="-0.01821">
        <ele>1215.7</ele>
        <time>2017-11-03T08:30:26Z</time>
      </trkpt>
      <trkpt lat="42.85409" lon="-0.01829">
        <ele>1217.2</ele>
        <time>2017-11-03T08:30:38Z</time>
      </trkpt>
      <trkpt lat="42.854" lon="-0.0183">
        <ele>1214.9</ele>
        <time>2017-11-03T08:30:51Z</time>
      </trkpt>
      <trkpt lat="42.85392" lon="-0.01832">
        <ele>1216.1</ele>
        <time>2017-11-03T08:31:03Z</time>
      </trkpt>
      <trkpt lat="42.85391" lon="-0.01832">
        <ele>1216.3</ele>
        <time>2017-11-03T08:31:04Z</time>
      </trkpt>
      <trkpt lat="42.85375" lon="-0.01831">
        <ele>1218.2</ele>
        <time>2017-11-03T08:31:17Z</time>
      </trkpt>
      <trkpt lat="42.85367" lon="-0.01834">
        <ele>1220.5</ele>
        <time>2017-11-03T08:31:26Z</time>
      </trkpt>
      <trkpt lat="42.85358" lon="-0.01835">
        <ele>1222.3</ele>
        <time>2017-11-03T08:31:36Z</time>
      </trkpt>
      <trkpt lat="42.85349" lon="-0.01832">
        <ele>1224</ele>
        <time>2017-11-03T08:31:47Z</time>
      </trkpt>
      <trkpt lat="42.85341" lon="-0.0183">
        <ele>1225.2</ele>
        <time>2017-11-03T08:31:56Z</time>
      </trkpt>
      <trkpt lat="42.85333" lon="-0.01827">
        <ele>1226.1</ele>
        <time>2017-11-03T08:32:04Z</time>
      </trkpt>
      <trkpt lat="42.85332" lon="-0.01826">
        <ele>1226.2</ele>
        <time>2017-11-03T08:32:05Z</time>
      </trkpt>
      <trkpt lat="42.85317" lon="-0.01819">
        <ele>1228.6</ele>
        <time>2017-11-03T08:32:26Z</time>
      </trkpt>
      <trkpt lat="42.85309" lon="-0.01818">
        <ele>1230</ele>
        <time>2017-11-03T08:32:35Z</time>
      </trkpt>
      <trkpt lat="42.85301" lon="-0.01813">
        <ele>1232.1</ele>
        <time>2017-11-03T08:32:48Z</time>
      </trkpt>
      <trkpt lat="42.85293" lon="-0.01812">
        <ele>1232.8</ele>
        <time>2017-11-03T08:32:58Z</time>
      </trkpt>
      <trkpt lat="42.85284" lon="-0.01814">
        <ele>1235.6</ele>
        <time>2017-11-03T08:33:10Z</time>
      </trkpt>
      <trkpt lat="42.85283" lon="-0.01814">
        <ele>1235.5</ele>
        <time>2017-11-03T08:33:11Z</time>
      </trkpt>
      <trkpt lat="42.85267" lon="-0.01811">
        <ele>1241</ele>
        <time>2017-11-03T08:33:37Z</time>
      </trkpt>
      <trkpt lat="42.85258" lon="-0.01809">
        <ele>1241.7</ele>
        <time>2017-11-03T08:33:49Z</time>
      </trkpt>
      <trkpt lat="42.8525" lon="-0.0181">
        <ele>1244.3</ele>
        <time>2017-11-03T08:34:00Z</time>
      </trkpt>
      <trkpt lat="42.85241" lon="-0.0181">
        <ele>1246.5</ele>
        <time>2017-11-03T08:34:12Z</time>
      </trkpt>
      <trkpt lat="42.8524" lon="-0.0181">
        <ele>1246.8</ele>
        <time>2017-11-03T08:34:13Z</time>
      </trkpt>
      <trkpt lat="42.85224" lon="-0.0181">
        <ele>1249.9</ele>
        <time>2017-11-03T08:34:38Z</time>
      </trkpt>
      <trkpt lat="42.85216" lon="-0.0181">
        <ele>1251</ele>
        <time>2017-11-03T08:34:47Z</time>
      </trkpt>
      <trkpt lat="42.85208" lon="-0.01805">
        <ele>1253.3</ele>
        <time>2017-11-03T08:34:58Z</time>
      </trkpt>
      <trkpt lat="42.852" lon="-0.01803">
        <ele>1255.6</ele>
        <time>2017-11-03T08:35:10Z</time>
      </trkpt>
      <trkpt lat="42.85191" lon="-0.01803">
        <ele>1256.2</ele>
        <time>2017-11-03T08:35:20Z</time>
      </trkpt>
      <trkpt lat="42.8519" lon="-0.01803">
        <ele>1256.4</ele>
        <time>2017-11-03T08:35:21Z</time>
      </trkpt>
      <trkpt lat="42.85175" lon="-0.01798">
        <ele>1258.6</ele>
        <time>2017-11-03T08:35:41Z</time>
      </trkpt>
      <trkpt lat="42.85167" lon="-0.01794">
        <ele>1261.7</ele>
        <time>2017-11-03T08:35:53Z</time>
      </trkpt>
      <trkpt lat="42.85158" lon="-0.01794">
        <ele>1261.8</ele>
        <time>2017-11-03T08:36:02Z</time>
      </trkpt>
      <trkpt lat="42.8515" lon="-0.01793">
        <ele>1263.1</ele>
        <time>2017-11-03T08:36:10Z</time>
      </trkpt>
      <trkpt lat="42.85142" lon="-0.01792">
        <ele>1264.3</ele>
        <time>2017-11-03T08:36:18Z</time>
      </trkpt>
      <trkpt lat="42.85133" lon="-0.01791">
        <ele>1266.4</ele>
        <time>2017-11-03T08:36:28Z</time>
      </trkpt>
      <trkpt lat="42.85132" lon="-0.01791">
        <ele>1266.6</ele>
        <time>2017-11-03T08:36:29Z</time>
      </trkpt>
      <trkpt lat="42.85116" lon="-0.01792">
        <ele>1269.6</ele>
        <time>2017-11-03T08:36:53Z</time>
      </trkpt>
      <trkpt lat="42.85107" lon="-0.0179">
        <ele>1271.4</ele>
        <time>2017-11-03T08:37:05Z</time>
      </trkpt>
      <trkpt lat="42.85099" lon="-0.01791">
        <ele>1273.3</ele>
        <time>2017-11-03T08:37:18Z</time>
      </trkpt>
      <trkpt lat="42.8509" lon="-0.01792">
        <ele>1275.7</ele>
        <time>2017-11-03T08:37:28Z</time>
      </trkpt>
      <trkpt lat="42.85082" lon="-0.01792">
        <ele>1275.8</ele>
        <time>2017-11-03T08:37:38Z</time>
      </trkpt>
      <trkpt lat="42.85081" lon="-0.01793">
        <ele>1276.2</ele>
        <time>2017-11-03T08:37:39Z</time>
      </trkpt>
      <trkpt lat="42.85065" lon="-0.01797">
        <ele>1279.9</ele>
        <time>2017-11-03T08:38:00Z</time>
      </trkpt>
      <trkpt lat="42.85056" lon="-0.01799">
        <ele>1281.6</ele>
        <time>2017-11-03T08:38:11Z</time>
      </trkpt>
      <trkpt lat="42.85048" lon="-0.01801">
        <ele>1282.9</ele>
        <time>2017-11-03T08:38:23Z</time>
      </trkpt>
      <trkpt lat="42.8504" lon="-0.01803">
        <ele>1283.6</ele>
        <time>2017-11-03T08:38:33Z</time>
      </trkpt>
      <trkpt lat="42.85032" lon="-0.01798">
        <ele>1286.2</ele>
        <time>2017-11-03T08:38:43Z</time>
      </trkpt>
      <trkpt lat="42.85031" lon="-0.01797">
        <ele>1286.3</ele>
        <time>2017-11-03T08:38:44Z</time>
      </trkpt>
      <trkpt lat="42.85015" lon="-0.018">
        <ele>1288.8</ele>
        <time>2017-11-03T08:39:06Z</time>
      </trkpt>
      <trkpt lat="42.85007" lon="-0.01805">
        <ele>1290.2</ele>
        <time>2017-11-03T08:39:14Z</time>
      </trkpt>
      <trkpt lat="42.84999" lon="-0.01808">
        <ele>1292.2</ele>
        <time>2017-11-03T08:39:25Z</time>
      </trkpt>
      <trkpt lat="42.84992" lon="-0.01814">
        <ele>1293.1</ele>
        <time>2017-11-03T08:39:37Z</time>
      </trkpt>
      <trkpt lat="42.84984" lon="-0.01817">
        <ele>1294.7</ele>
        <time>2017-11-03T08:39:46Z</time>
      </trkpt>
      <trkpt lat="42.84982" lon="-0.01817">
        <ele>1294.9</ele>
        <time>2017-11-03T08:39:47Z</time>
      </trkpt>
      <trkpt lat="42.84966" lon="-0.01817">
        <ele>1295.4</ele>
        <time>2017-11-03T08:40:04Z</time>
      </trkpt>
      <trkpt lat="42.84959" lon="-0.01817">
        <ele>1295.8</ele>
        <time>2017-11-03T08:40:13Z</time>
      </trkpt>
      <trkpt lat="42.8495" lon="-0.01816">
        <ele>1295</ele>
        <time>2017-11-03T08:40:21Z</time>
      </trkpt>
      <trkpt lat="42.84942" lon="-0.01814">
        <ele>1296.3</ele>
        <time>2017-11-03T08:40:29Z</time>
      </trkpt>
      <trkpt lat="42.84934" lon="-0.01811">
        <ele>1298.5</ele>
        <time>2017-11-03T08:40:39Z</time>
      </trkpt>
      <trkpt lat="42.84926" lon="-0.01811">
        <ele>1298.9</ele>
        <time>2017-11-03T08:40:47Z</time>
      </trkpt>
      <trkpt lat="42.84925" lon="-0.01812">
        <ele>1299.1</ele>
        <time>2017-11-03T08:40:48Z</time>
      </trkpt>
      <trkpt lat="42.84909" lon="-0.01814">
        <ele>1302.6</ele>
        <time>2017-11-03T08:41:07Z</time>
      </trkpt>
      <trkpt lat="42.84902" lon="-0.01821">
        <ele>1302.3</ele>
        <time>2017-11-03T08:41:17Z</time>
      </trkpt>
      <trkpt lat="42.84905" lon="-0.01832">
        <ele>1307.1</ele>
        <time>2017-11-03T08:41:39Z</time>
      </trkpt>
      <trkpt lat="42.84899" lon="-0.0184">
        <ele>1311.5</ele>
        <time>2017-11-03T08:42:05Z</time>
      </trkpt>
      <trkpt lat="42.84898" lon="-0.01841">
        <ele>1311</ele>
        <time>2017-11-03T08:42:06Z</time>
      </trkpt>
      <trkpt lat="42.84882" lon="-0.01842">
        <ele>1315.5</ele>
        <time>2017-11-03T08:42:31Z</time>
      </trkpt>
      <trkpt lat="42.84874" lon="-0.01844">
        <ele>1317</ele>
        <time>2017-11-03T08:42:41Z</time>
      </trkpt>
      <trkpt lat="42.84865" lon="-0.01845">
        <ele>1316.5</ele>
        <time>2017-11-03T08:42:51Z</time>
      </trkpt>
      <trkpt lat="42.84858" lon="-0.01851">
        <ele>1316.7</ele>
        <time>2017-11-03T08:43:00Z</time>
      </trkpt>
      <trkpt lat="42.84851" lon="-0.01856">
        <ele>1315.3</ele>
        <time>2017-11-03T08:43:08Z</time>
      </trkpt>
      <trkpt lat="42.8485" lon="-0.01857">
        <ele>1315.3</ele>
        <time>2017-11-03T08:43:09Z</time>
      </trkpt>
      <trkpt lat="42.84837" lon="-0.01869">
        <ele>1315.1</ele>
        <time>2017-11-03T08:43:23Z</time>
      </trkpt>
      <trkpt lat="42.84828" lon="-0.01871">
        <ele>1316.6</ele>
        <time>2017-11-03T08:43:32Z</time>
      </trkpt>
      <trkpt lat="42.84819" lon="-0.01873">
        <ele>1318.2</ele>
        <time>2017-11-03T08:43:45Z</time>
      </trkpt>
      <trkpt lat="42.84811" lon="-0.01875">
        <ele>1319.8</ele>
        <time>2017-11-03T08:43:55Z</time>
      </trkpt>
      <trkpt lat="42.84802" lon="-0.01876">
        <ele>1322.1</ele>
        <time>2017-11-03T08:44:14Z</time>
      </trkpt>
      <trkpt lat="42.84802" lon="-0.01876">
        <ele>1322.1</ele>
        <time>2017-11-03T08:44:15Z</time>
      </trkpt>
      <trkpt lat="42.84786" lon="-0.01883">
        <ele>1324.6</ele>
        <time>2017-11-03T08:45:03Z</time>
      </trkpt>
      <trkpt lat="42.84778" lon="-0.01885">
        <ele>1325.6</ele>
        <time>2017-11-03T08:45:14Z</time>
      </trkpt>
      <trkpt lat="42.84769" lon="-0.01885">
        <ele>1325.5</ele>
        <time>2017-11-03T08:45:24Z</time>
      </trkpt>
      <trkpt lat="42.84768" lon="-0.01885">
        <ele>1325.3</ele>
        <time>2017-11-03T08:45:25Z</time>
      </trkpt>
      <trkpt lat="42.84753" lon="-0.01882">
        <ele>1326.9</ele>
        <time>2017-11-03T08:45:46Z</time>
      </trkpt>
      <trkpt lat="42.84744" lon="-0.0188">
        <ele>1329.4</ele>
        <time>2017-11-03T08:45:57Z</time>
      </trkpt>
      <trkpt lat="42.84736" lon="-0.01876">
        <ele>1330.4</ele>
        <time>2017-11-03T08:46:07Z</time>
      </trkpt>
      <trkpt lat="42.84727" lon="-0.01875">
        <ele>1331.1</ele>
        <time>2017-11-03T08:46:17Z</time>
      </trkpt>
      <trkpt lat="42.84719" lon="-0.01879">
        <ele>1333.3</ele>
        <time>2017-11-03T08:46:27Z</time>
      </trkpt>
      <trkpt lat="42.84718" lon="-0.01879">
        <ele>1333.2</ele>
        <time>2017-11-03T08:46:28Z</time>
      </trkpt>
      <trkpt lat="42.84701" lon="-0.01882">
        <ele>1337</ele>
        <time>2017-11-03T08:46:50Z</time>
      </trkpt>
      <trkpt lat="42.84693" lon="-0.01884">
        <ele>1339.1</ele>
        <time>2017-11-03T08:47:04Z</time>
      </trkpt>
      <trkpt lat="42.84685" lon="-0.0189">
        <ele>1339.7</ele>
        <time>2017-11-03T08:47:13Z</time>
      </trkpt>
      <trkpt lat="42.84677" lon="-0.01893">
        <ele>1340.1</ele>
        <time>2017-11-03T08:47:22Z</time>
      </trkpt>
      <trkpt lat="42.84669" lon="-0.01898">
        <ele>1342.4</ele>
        <time>2017-11-03T08:47:33Z</time>
      </trkpt>
      <trkpt lat="42.84668" lon="-0.01899">
        <ele>1342.5</ele>
        <time>2017-11-03T08:47:34Z</time>
      </trkpt>
      <trkpt lat="42.84654" lon="-0.0191">
        <ele>1345.3</ele>
        <time>2017-11-03T08:47:54Z</time>
      </trkpt>
      <trkpt lat="42.84646" lon="-0.01913">
        <ele>1347.5</ele>
        <time>2017-11-03T08:48:04Z</time>
      </trkpt>
      <trkpt lat="42.84638" lon="-0.01918">
        <ele>1349.9</ele>
        <time>2017-11-03T08:48:14Z</time>
      </trkpt>
      <trkpt lat="42.8463" lon="-0.01923">
        <ele>1350</ele>
        <time>2017-11-03T08:48:27Z</time>
      </trkpt>
      <trkpt lat="42.84623" lon="-0.01929">
        <ele>1352.4</ele>
        <time>2017-11-03T08:48:38Z</time>
      </trkpt>
      <trkpt lat="42.84622" lon="-0.0193">
        <ele>1352.9</ele>
        <time>2017-11-03T08:48:39Z</time>
      </trkpt>
      <trkpt lat="42.84609" lon="-0.01943">
        <ele>1356.8</ele>
        <time>2017-11-03T08:49:00Z</time>
      </trkpt>
      <trkpt lat="42.84603" lon="-0.01951">
        <ele>1358.7</ele>
        <time>2017-11-03T08:49:11Z</time>
      </trkpt>
      <trkpt lat="42.84595" lon="-0.01957">
        <ele>1359.1</ele>
        <time>2017-11-03T08:49:23Z</time>
      </trkpt>
      <trkpt lat="42.84586" lon="-0.01957">
        <ele>1361.7</ele>
        <time>2017-11-03T08:49:40Z</time>
      </trkpt>
      <trkpt lat="42.84586" lon="-0.01957">
        <ele>1361.9</ele>
        <time>2017-11-03T08:49:41Z</time>
      </trkpt>
      <trkpt lat="42.8457" lon="-0.01954">
        <ele>1364.7</ele>
        <time>2017-11-03T08:50:03Z</time>
      </trkpt>
      <trkpt lat="42.84562" lon="-0.01948">
        <ele>1366.6</ele>
        <time>2017-11-03T08:50:15Z</time>
      </trkpt>
      <trkpt lat="42.84554" lon="-0.01944">
        <ele>1369.2</ele>
        <time>2017-11-03T08:50:25Z</time>
      </trkpt>
      <trkpt lat="42.84545" lon="-0.01943">
        <ele>1368.7</ele>
        <time>2017-11-03T08:50:34Z</time>
      </trkpt>
      <trkpt lat="42.84537" lon="-0.01942">
        <ele>1369.6</ele>
        <time>2017-11-03T08:50:42Z</time>
      </trkpt>
      <trkpt lat="42.84536" lon="-0.01942">
        <ele>1369.8</ele>
        <time>2017-11-03T08:50:43Z</time>
      </trkpt>
      <trkpt lat="42.8452" lon="-0.01938">
        <ele>1371.6</ele>
        <time>2017-11-03T08:51:01Z</time>
      </trkpt>
      <trkpt lat="42.84512" lon="-0.01939">
        <ele>1372.1</ele>
        <time>2017-11-03T08:51:11Z</time>
      </trkpt>
      <trkpt lat="42.84505" lon="-0.01945">
        <ele>1374.3</ele>
        <time>2017-11-03T08:51:21Z</time>
      </trkpt>
      <trkpt lat="42.84497" lon="-0.0195">
        <ele>1376.2</ele>
        <time>2017-11-03T08:51:32Z</time>
      </trkpt>
      <trkpt lat="42.84488" lon="-0.01951">
        <ele>1377.5</ele>
        <time>2017-11-03T08:51:45Z</time>
      </trkpt>
      <trkpt lat="42.84488" lon="-0.01951">
        <ele>1377.6</ele>
        <time>2017-11-03T08:51:46Z</time>
      </trkpt>
      <trkpt lat="42.84471" lon="-0.01952">
        <ele>1384.9</ele>
        <time>2017-11-03T08:52:22Z</time>
      </trkpt>
      <trkpt lat="42.84464" lon="-0.01957">
        <ele>1389.1</ele>
        <time>2017-11-03T08:52:39Z</time>
      </trkpt>
      <trkpt lat="42.84455" lon="-0.01961">
        <ele>1390</ele>
        <time>2017-11-03T08:52:50Z</time>
      </trkpt>
      <trkpt lat="42.84455" lon="-0.01961">
        <ele>1389.9</ele>
        <time>2017-11-03T08:52:51Z</time>
      </trkpt>
      <trkpt lat="42.84439" lon="-0.01955">
        <ele>1393.2</ele>
        <time>2017-11-03T08:53:17Z</time>
      </trkpt>
      <trkpt lat="42.84431" lon="-0.01953">
        <ele>1394.9</ele>
        <time>2017-11-03T08:53:30Z</time>
      </trkpt>
      <trkpt lat="42.84423" lon="-0.01954">
        <ele>1395.9</ele>
        <time>2017-11-03T08:53:38Z</time>
      </trkpt>
      <trkpt lat="42.84414" lon="-0.01954">
        <ele>1396.3</ele>
        <time>2017-11-03T08:53:48Z</time>
      </trkpt>
      <trkpt lat="42.84406" lon="-0.01952">
        <ele>1397.6</ele>
        <time>2017-11-03T08:53:58Z</time>
      </trkpt>
      <trkpt lat="42.84405" lon="-0.01951">
        <ele>1397.6</ele>
        <time>2017-11-03T08:53:59Z</time>
      </trkpt>
      <trkpt lat="42.84391" lon="-0.01944">
        <ele>1400.1</ele>
        <time>2017-11-03T08:54:16Z</time>
      </trkpt>
      <trkpt lat="42.84383" lon="-0.01942">
        <ele>1401.3</ele>
        <time>2017-11-03T08:54:26Z</time>
      </trkpt>
      <trkpt lat="42.84374" lon="-0.01941">
        <ele>1403.3</ele>
        <time>2017-11-03T08:54:39Z</time>
      </trkpt>
      <trkpt lat="42.84365" lon="-0.01944">
        <ele>1406.4</ele>
        <time>2017-11-03T08:54:54Z</time>
      </trkpt>
      <trkpt lat="42.84357" lon="-0.01945">
        <ele>1409.2</ele>
        <time>2017-11-03T08:55:06Z</time>
      </trkpt>
      <trkpt lat="42.84356" lon="-0.01945">
        <ele>1409.6</ele>
        <time>2017-11-03T08:55:07Z</time>
      </trkpt>
      <trkpt lat="42.8434" lon="-0.01948">
        <ele>1412</ele>
        <time>2017-11-03T08:55:27Z</time>
      </trkpt>
      <trkpt lat="42.84334" lon="-0.01957">
        <ele>1413.2</ele>
        <time>2017-11-03T08:55:37Z</time>
      </trkpt>
      <trkpt lat="42.84327" lon="-0.01963">
        <ele>1413.4</ele>
        <time>2017-11-03T08:55:46Z</time>
      </trkpt>
      <trkpt lat="42.84322" lon="-0.01971">
        <ele>1415.4</ele>
        <time>2017-11-03T08:55:54Z</time>
      </trkpt>
      <trkpt lat="42.84315" lon="-0.01978">
        <ele>1415.4</ele>
        <time>2017-11-03T08:56:03Z</time>
      </trkpt>
      <trkpt lat="42.84308" lon="-0.01985">
        <ele>1416.4</ele>
        <time>2017-11-03T08:56:13Z</time>
      </trkpt>
      <trkpt lat="42.84307" lon="-0.01985">
        <ele>1416.4</ele>
        <time>2017-11-03T08:56:14Z</time>
      </trkpt>
      <trkpt lat="42.84291" lon="-0.01986">
        <ele>1418.8</ele>
        <time>2017-11-03T08:56:35Z</time>
      </trkpt>
      <trkpt lat="42.84282" lon="-0.01984">
        <ele>1422.1</ele>
        <time>2017-11-03T08:56:46Z</time>
      </trkpt>
      <trkpt lat="42.84274" lon="-0.01981">
        <ele>1422.6</ele>
        <time>2017-11-03T08:56:57Z</time>
      </trkpt>
      <trkpt lat="42.84265" lon="-0.01986">
        <ele>1424.4</ele>
        <time>2017-11-03T08:57:08Z</time>
      </trkpt>
      <trkpt lat="42.84258" lon="-0.01991">
        <ele>1427</ele>
        <time>2017-11-03T08:57:17Z</time>
      </trkpt>
      <trkpt lat="42.84257" lon="-0.01992">
        <ele>1427.2</ele>
        <time>2017-11-03T08:57:18Z</time>
      </trkpt>
      <trkpt lat="42.84241" lon="-0.01997">
        <ele>1429.4</ele>
        <time>2017-11-03T08:57:38Z</time>
      </trkpt>
      <trkpt lat="42.84232" lon="-0.01998">
        <ele>1431.1</ele>
        <time>2017-11-03T08:57:48Z</time>
      </trkpt>
      <trkpt lat="42.84224" lon="-0.01994">
        <ele>1433</ele>
        <time>2017-11-03T08:58:02Z</time>
      </trkpt>
      <trkpt lat="42.84227" lon="-0.02005">
        <ele>1435.2</ele>
        <time>2017-11-03T08:58:24Z</time>
      </trkpt>
      <trkpt lat="42.84227" lon="-0.02006">
        <ele>1435.2</ele>
        <time>2017-11-03T08:58:25Z</time>
      </trkpt>
      <trkpt lat="42.84237" lon="-0.02023">
        <ele>1439.1</ele>
        <time>2017-11-03T08:58:53Z</time>
      </trkpt>
      <trkpt lat="42.84229" lon="-0.02024">
        <ele>1445</ele>
        <time>2017-11-03T08:59:26Z</time>
      </trkpt>
      <trkpt lat="42.84228" lon="-0.02024">
        <ele>1445.3</ele>
        <time>2017-11-03T08:59:27Z</time>
      </trkpt>
      <trkpt lat="42.84213" lon="-0.02031">
        <ele>1447.6</ele>
        <time>2017-11-03T08:59:46Z</time>
      </trkpt>
      <trkpt lat="42.84205" lon="-0.02036">
        <ele>1449.8</ele>
        <time>2017-11-03T08:59:58Z</time>
      </trkpt>
      <trkpt lat="42.84199" lon="-0.02044">
        <ele>1452.2</ele>
        <time>2017-11-03T09:00:10Z</time>
      </trkpt>
      <trkpt lat="42.84191" lon="-0.02049">
        <ele>1452.7</ele>
        <time>2017-11-03T09:00:23Z</time>
      </trkpt>
      <trkpt lat="42.84183" lon="-0.0205">
        <ele>1452.5</ele>
        <time>2017-11-03T09:00:32Z</time>
      </trkpt>
      <trkpt lat="42.84182" lon="-0.0205">
        <ele>1452.5</ele>
        <time>2017-11-03T09:00:33Z</time>
      </trkpt>
      <trkpt lat="42.84167" lon="-0.02051">
        <ele>1450.5</ele>
        <time>2017-11-03T09:00:48Z</time>
      </trkpt>
      <trkpt lat="42.8416" lon="-0.02054">
        <ele>1449.7</ele>
        <time>2017-11-03T09:00:55Z</time>
      </trkpt>
      <trkpt lat="42.84152" lon="-0.02061">
        <ele>1450</ele>
        <time>2017-11-03T09:01:03Z</time>
      </trkpt>
      <trkpt lat="42.84145" lon="-0.02067">
        <ele>1449.7</ele>
        <time>2017-11-03T09:01:12Z</time>
      </trkpt>
      <trkpt lat="42.84138" lon="-0.02071">
        <ele>1451.1</ele>
        <time>2017-11-03T09:01:22Z</time>
      </trkpt>
      <trkpt lat="42.8413" lon="-0.02076">
        <ele>1450.5</ele>
        <time>2017-11-03T09:01:31Z</time>
      </trkpt>
      <trkpt lat="42.84123" lon="-0.02082">
        <ele>1451.9</ele>
        <time>2017-11-03T09:01:39Z</time>
      </trkpt>
      <trkpt lat="42.84122" lon="-0.02083">
        <ele>1452.3</ele>
        <time>2017-11-03T09:01:40Z</time>
      </trkpt>
      <trkpt lat="42.84111" lon="-0.02099">
        <ele>1456.3</ele>
        <time>2017-11-03T09:01:59Z</time>
      </trkpt>
      <trkpt lat="42.84106" lon="-0.02109">
        <ele>1457.3</ele>
        <time>2017-11-03T09:02:10Z</time>
      </trkpt>
      <trkpt lat="42.84099" lon="-0.02116">
        <ele>1458.1</ele>
        <time>2017-11-03T09:02:19Z</time>
      </trkpt>
      <trkpt lat="42.84093" lon="-0.02126">
        <ele>1457.2</ele>
        <time>2017-11-03T09:02:28Z</time>
      </trkpt>
      <trkpt lat="42.84086" lon="-0.02131">
        <ele>1458.4</ele>
        <time>2017-11-03T09:02:35Z</time>
      </trkpt>
      <trkpt lat="42.84079" lon="-0.02138">
        <ele>1459.3</ele>
        <time>2017-11-03T09:02:43Z</time>
      </trkpt>
      <trkpt lat="42.84078" lon="-0.02139">
        <ele>1459.6</ele>
        <time>2017-11-03T09:02:44Z</time>
      </trkpt>
      <trkpt lat="42.84063" lon="-0.02146">
        <ele>1461.4</ele>
        <time>2017-11-03T09:03:04Z</time>
      </trkpt>
      <trkpt lat="42.84055" lon="-0.02151">
        <ele>1463.7</ele>
        <time>2017-11-03T09:03:15Z</time>
      </trkpt>
      <trkpt lat="42.84047" lon="-0.02157">
        <ele>1466.1</ele>
        <time>2017-11-03T09:03:31Z</time>
      </trkpt>
      <trkpt lat="42.84048" lon="-0.02169">
        <ele>1472.4</ele>
        <time>2017-11-03T09:04:06Z</time>
      </trkpt>
      <trkpt lat="42.84047" lon="-0.0217">
        <ele>1472.4</ele>
        <time>2017-11-03T09:04:07Z</time>
      </trkpt>
      <trkpt lat="42.8404" lon="-0.02188">
        <ele>1476.3</ele>
        <time>2017-11-03T09:04:29Z</time>
      </trkpt>
      <trkpt lat="42.84034" lon="-0.02197">
        <ele>1476.3</ele>
        <time>2017-11-03T09:04:39Z</time>
      </trkpt>
      <trkpt lat="42.84028" lon="-0.02205">
        <ele>1476.6</ele>
        <time>2017-11-03T09:04:49Z</time>
      </trkpt>
      <trkpt lat="42.84023" lon="-0.02215">
        <ele>1477</ele>
        <time>2017-11-03T09:04:59Z</time>
      </trkpt>
      <trkpt lat="42.8402" lon="-0.02225">
        <ele>1478.5</ele>
        <time>2017-11-03T09:05:10Z</time>
      </trkpt>
      <trkpt lat="42.84019" lon="-0.02226">
        <ele>1478.9</ele>
        <time>2017-11-03T09:05:11Z</time>
      </trkpt>
      <trkpt lat="42.84009" lon="-0.02243">
        <ele>1480.4</ele>
        <time>2017-11-03T09:05:28Z</time>
      </trkpt>
      <trkpt lat="42.84003" lon="-0.02251">
        <ele>1480.6</ele>
        <time>2017-11-03T09:05:37Z</time>
      </trkpt>
      <trkpt lat="42.83997" lon="-0.02259">
        <ele>1481.9</ele>
        <time>2017-11-03T09:05:47Z</time>
      </trkpt>
      <trkpt lat="42.83991" lon="-0.02266">
        <ele>1482.4</ele>
        <time>2017-11-03T09:05:54Z</time>
      </trkpt>
      <trkpt lat="42.83984" lon="-0.02272">
        <ele>1481.5</ele>
        <time>2017-11-03T09:06:02Z</time>
      </trkpt>
      <trkpt lat="42.83978" lon="-0.0228">
        <ele>1482.7</ele>
        <time>2017-11-03T09:06:10Z</time>
      </trkpt>
      <trkpt lat="42.83971" lon="-0.02287">
        <ele>1483.5</ele>
        <time>2017-11-03T09:06:17Z</time>
      </trkpt>
      <trkpt lat="42.8397" lon="-0.02288">
        <ele>1483.3</ele>
        <time>2017-11-03T09:06:18Z</time>
      </trkpt>
      <trkpt lat="42.83962" lon="-0.02306">
        <ele>1483.6</ele>
        <time>2017-11-03T09:06:33Z</time>
      </trkpt>
      <trkpt lat="42.83958" lon="-0.02317">
        <ele>1483.7</ele>
        <time>2017-11-03T09:06:42Z</time>
      </trkpt>
      <trkpt lat="42.83954" lon="-0.02327">
        <ele>1484.4</ele>
        <time>2017-11-03T09:06:49Z</time>
      </trkpt>
      <trkpt lat="42.8395" lon="-0.02337">
        <ele>1484.8</ele>
        <time>2017-11-03T09:06:56Z</time>
      </trkpt>
      <trkpt lat="42.83945" lon="-0.02346">
        <ele>1485.4</ele>
        <time>2017-11-03T09:07:03Z</time>
      </trkpt>
      <trkpt lat="42.8394" lon="-0.02355">
        <ele>1487.3</ele>
        <time>2017-11-03T09:07:12Z</time>
      </trkpt>
      <trkpt lat="42.83936" lon="-0.02366">
        <ele>1488.9</ele>
        <time>2017-11-03T09:07:23Z</time>
      </trkpt>
      <trkpt lat="42.83936" lon="-0.02367">
        <ele>1488.9</ele>
        <time>2017-11-03T09:07:24Z</time>
      </trkpt>
      <trkpt lat="42.83946" lon="-0.02382">
        <ele>1498.7</ele>
        <time>2017-11-03T09:08:19Z</time>
      </trkpt>
      <trkpt lat="42.83946" lon="-0.02394">
        <ele>1501</ele>
        <time>2017-11-03T09:08:39Z</time>
      </trkpt>
      <trkpt lat="42.83946" lon="-0.02395">
        <ele>1500.8</ele>
        <time>2017-11-03T09:08:40Z</time>
      </trkpt>
      <trkpt lat="42.83936" lon="-0.02413">
        <ele>1504.4</ele>
        <time>2017-11-03T09:09:07Z</time>
      </trkpt>
      <trkpt lat="42.83942" lon="-0.02422">
        <ele>1507.5</ele>
        <time>2017-11-03T09:09:35Z</time>
      </trkpt>
      <trkpt lat="42.83943" lon="-0.02434">
        <ele>1512.1</ele>
        <time>2017-11-03T09:09:55Z</time>
      </trkpt>
      <trkpt lat="42.83943" lon="-0.02435">
        <ele>1512.3</ele>
        <time>2017-11-03T09:09:56Z</time>
      </trkpt>
      <trkpt lat="42.83956" lon="-0.0245">
        <ele>1525.6</ele>
        <time>2017-11-03T09:11:07Z</time>
      </trkpt>
      <trkpt lat="42.83956" lon="-0.0245">
        <ele>1526</ele>
        <time>2017-11-03T09:11:08Z</time>
      </trkpt>
      <trkpt lat="42.83963" lon="-0.0247">
        <ele>1535.7</ele>
        <time>2017-11-03T09:12:02Z</time>
      </trkpt>
      <trkpt lat="42.83961" lon="-0.02481">
        <ele>1537.2</ele>
        <time>2017-11-03T09:12:16Z</time>
      </trkpt>
      <trkpt lat="42.83961" lon="-0.02482">
        <ele>1537.4</ele>
        <time>2017-11-03T09:12:17Z</time>
      </trkpt>
      <trkpt lat="42.83955" lon="-0.02503">
        <ele>1541.7</ele>
        <time>2017-11-03T09:12:38Z</time>
      </trkpt>
      <trkpt lat="42.83953" lon="-0.02515">
        <ele>1543.1</ele>
        <time>2017-11-03T09:12:50Z</time>
      </trkpt>
      <trkpt lat="42.83949" lon="-0.02526">
        <ele>1545.5</ele>
        <time>2017-11-03T09:13:12Z</time>
      </trkpt>
      <trkpt lat="42.83943" lon="-0.02533">
        <ele>1546.5</ele>
        <time>2017-11-03T09:13:23Z</time>
      </trkpt>
      <trkpt lat="42.83942" lon="-0.02534">
        <ele>1546.5</ele>
        <time>2017-11-03T09:13:24Z</time>
      </trkpt>
      <trkpt lat="42.83925" lon="-0.02536">
        <ele>1548.5</ele>
        <time>2017-11-03T09:13:53Z</time>
      </trkpt>
      <trkpt lat="42.83927" lon="-0.02548">
        <ele>1555</ele>
        <time>2017-11-03T09:14:16Z</time>
      </trkpt>
      <trkpt lat="42.8393" lon="-0.02558">
        <ele>1557.4</ele>
        <time>2017-11-03T09:14:33Z</time>
      </trkpt>
      <trkpt lat="42.83931" lon="-0.02559">
        <ele>1557.7</ele>
        <time>2017-11-03T09:14:34Z</time>
      </trkpt>
      <trkpt lat="42.83946" lon="-0.02566">
        <ele>1558.7</ele>
        <time>2017-11-03T09:14:53Z</time>
      </trkpt>
      <trkpt lat="42.83953" lon="-0.02574">
        <ele>1560.7</ele>
        <time>2017-11-03T09:15:05Z</time>
      </trkpt>
      <trkpt lat="42.8396" lon="-0.0258">
        <ele>1564.3</ele>
        <time>2017-11-03T09:15:20Z</time>
      </trkpt>
      <trkpt lat="42.83959" lon="-0.02592">
        <ele>1569.5</ele>
        <time>2017-11-03T09:15:43Z</time>
      </trkpt>
      <trkpt lat="42.83959" lon="-0.02593">
        <ele>1569.7</ele>
        <time>2017-11-03T09:15:44Z</time>
      </trkpt>
      <trkpt lat="42.83948" lon="-0.02609">
        <ele>1578.8</ele>
        <time>2017-11-03T09:16:32Z</time>
      </trkpt>
      <trkpt lat="42.83939" lon="-0.02606">
        <ele>1583.2</ele>
        <time>2017-11-03T09:16:57Z</time>
      </trkpt>
      <trkpt lat="42.83939" lon="-0.02606">
        <ele>1583.2</ele>
        <time>2017-11-03T09:16:58Z</time>
      </trkpt>
      <trkpt lat="42.83929" lon="-0.02618">
        <ele>1587</ele>
        <time>2017-11-03T09:17:38Z</time>
      </trkpt>
      <trkpt lat="42.83921" lon="-0.02624">
        <ele>1590.5</ele>
        <time>2017-11-03T09:17:55Z</time>
      </trkpt>
      <trkpt lat="42.83922" lon="-0.02636">
        <ele>1594.1</ele>
        <time>2017-11-03T09:18:15Z</time>
      </trkpt>
      <trkpt lat="42.83922" lon="-0.02636">
        <ele>1594.3</ele>
        <time>2017-11-03T09:18:16Z</time>
      </trkpt>
      <trkpt lat="42.83917" lon="-0.02646">
        <ele>1606.6</ele>
        <time>2017-11-03T09:19:26Z</time>
      </trkpt>
      <trkpt lat="42.839" lon="-0.02651">
        <ele>1611</ele>
        <time>2017-11-03T09:19:58Z</time>
      </trkpt>
      <trkpt lat="42.83892" lon="-0.02653">
        <ele>1612.8</ele>
        <time>2017-11-03T09:20:09Z</time>
      </trkpt>
      <trkpt lat="42.83885" lon="-0.02661">
        <ele>1614.9</ele>
        <time>2017-11-03T09:20:23Z</time>
      </trkpt>
      <trkpt lat="42.83877" lon="-0.02666">
        <ele>1617.8</ele>
        <time>2017-11-03T09:20:41Z</time>
      </trkpt>
      <trkpt lat="42.83876" lon="-0.02665">
        <ele>1617.8</ele>
        <time>2017-11-03T09:20:42Z</time>
      </trkpt>
      <trkpt lat="42.83868" lon="-0.02682">
        <ele>1623</ele>
        <time>2017-11-03T09:21:10Z</time>
      </trkpt>
      <trkpt lat="42.83869" lon="-0.02695">
        <ele>1626.1</ele>
        <time>2017-11-03T09:21:23Z</time>
      </trkpt>
      <trkpt lat="42.83865" lon="-0.02705">
        <ele>1628.5</ele>
        <time>2017-11-03T09:21:40Z</time>
      </trkpt>
      <trkpt lat="42.83863" lon="-0.02717">
        <ele>1631.9</ele>
        <time>2017-11-03T09:21:56Z</time>
      </trkpt>
      <trkpt lat="42.83863" lon="-0.02717">
        <ele>1631.8</ele>
        <time>2017-11-03T09:21:57Z</time>
      </trkpt>
      <trkpt lat="42.83852" lon="-0.02736">
        <ele>1637.4</ele>
        <time>2017-11-03T09:22:30Z</time>
      </trkpt>
      <trkpt lat="42.83844" lon="-0.02738">
        <ele>1638.7</ele>
        <time>2017-11-03T09:22:51Z</time>
      </trkpt>
      <trkpt lat="42.83837" lon="-0.02744">
        <ele>1641.7</ele>
        <time>2017-11-03T09:23:06Z</time>
      </trkpt>
      <trkpt lat="42.83836" lon="-0.02744">
        <ele>1641.6</ele>
        <time>2017-11-03T09:23:07Z</time>
      </trkpt>
      <trkpt lat="42.83821" lon="-0.02755">
        <ele>1641.7</ele>
        <time>2017-11-03T09:23:30Z</time>
      </trkpt>
      <trkpt lat="42.83814" lon="-0.02762">
        <ele>1641.2</ele>
        <time>2017-11-03T09:23:42Z</time>
      </trkpt>
      <trkpt lat="42.83808" lon="-0.02771">
        <ele>1642.4</ele>
        <time>2017-11-03T09:23:51Z</time>
      </trkpt>
      <trkpt lat="42.83805" lon="-0.02782">
        <ele>1644.5</ele>
        <time>2017-11-03T09:24:05Z</time>
      </trkpt>
      <trkpt lat="42.83798" lon="-0.02789">
        <ele>1647.9</ele>
        <time>2017-11-03T09:24:22Z</time>
      </trkpt>
      <trkpt lat="42.83798" lon="-0.0279">
        <ele>1647.9</ele>
        <time>2017-11-03T09:24:23Z</time>
      </trkpt>
      <trkpt lat="42.83789" lon="-0.02808">
        <ele>1650.3</ele>
        <time>2017-11-03T09:24:42Z</time>
      </trkpt>
      <trkpt lat="42.83784" lon="-0.02818">
        <ele>1651.8</ele>
        <time>2017-11-03T09:24:53Z</time>
      </trkpt>
      <trkpt lat="42.83779" lon="-0.02826">
        <ele>1652.9</ele>
        <time>2017-11-03T09:25:02Z</time>
      </trkpt>
      <trkpt lat="42.83772" lon="-0.02833">
        <ele>1653.9</ele>
        <time>2017-11-03T09:25:10Z</time>
      </trkpt>
      <trkpt lat="42.83765" lon="-0.0284">
        <ele>1654.8</ele>
        <time>2017-11-03T09:25:19Z</time>
      </trkpt>
      <trkpt lat="42.8376" lon="-0.02849">
        <ele>1656</ele>
        <time>2017-11-03T09:25:28Z</time>
      </trkpt>
      <trkpt lat="42.83759" lon="-0.0285">
        <ele>1656.2</ele>
        <time>2017-11-03T09:25:29Z</time>
      </trkpt>
      <trkpt lat="42.83744" lon="-0.02858">
        <ele>1657</ele>
        <time>2017-11-03T09:25:45Z</time>
      </trkpt>
      <trkpt lat="42.83737" lon="-0.02866">
        <ele>1656.8</ele>
        <time>2017-11-03T09:25:55Z</time>
      </trkpt>
      <trkpt lat="42.83733" lon="-0.02875">
        <ele>1658.2</ele>
        <time>2017-11-03T09:26:03Z</time>
      </trkpt>
      <trkpt lat="42.83727" lon="-0.02882">
        <ele>1659.7</ele>
        <time>2017-11-03T09:26:11Z</time>
      </trkpt>
      <trkpt lat="42.83719" lon="-0.02886">
        <ele>1660.7</ele>
        <time>2017-11-03T09:26:20Z</time>
      </trkpt>
      <trkpt lat="42.83711" lon="-0.02891">
        <ele>1659.8</ele>
        <time>2017-11-03T09:26:28Z</time>
      </trkpt>
      <trkpt lat="42.83703" lon="-0.02895">
        <ele>1659.8</ele>
        <time>2017-11-03T09:26:37Z</time>
      </trkpt>
      <trkpt lat="42.83703" lon="-0.02896">
        <ele>1659.9</ele>
        <time>2017-11-03T09:26:38Z</time>
      </trkpt>
      <trkpt lat="42.83687" lon="-0.02901">
        <ele>1661</ele>
        <time>2017-11-03T09:26:52Z</time>
      </trkpt>
      <trkpt lat="42.83679" lon="-0.02903">
        <ele>1661.9</ele>
        <time>2017-11-03T09:27:02Z</time>
      </trkpt>
      <trkpt lat="42.8367" lon="-0.02903">
        <ele>1661.5</ele>
        <time>2017-11-03T09:27:10Z</time>
      </trkpt>
      <trkpt lat="42.83662" lon="-0.02907">
        <ele>1661.6</ele>
        <time>2017-11-03T09:27:20Z</time>
      </trkpt>
      <trkpt lat="42.83655" lon="-0.02915">
        <ele>1660.9</ele>
        <time>2017-11-03T09:27:31Z</time>
      </trkpt>
      <trkpt lat="42.83652" lon="-0.02925">
        <ele>1661.6</ele>
        <time>2017-11-03T09:27:43Z</time>
      </trkpt>
      <trkpt lat="42.83651" lon="-0.02926">
        <ele>1661.7</ele>
        <time>2017-11-03T09:27:44Z</time>
      </trkpt>
      <trkpt lat="42.83643" lon="-0.02927">
        <ele>1666.1</ele>
        <time>2017-11-03T09:40:04Z</time>
      </trkpt>
      <trkpt lat="42.83628" lon="-0.02938">
        <ele>1664.2</ele>
        <time>2017-11-03T09:40:53Z</time>
      </trkpt>
      <trkpt lat="42.8362" lon="-0.02943">
        <ele>1664.2</ele>
        <time>2017-11-03T09:41:02Z</time>
      </trkpt>
      <trkpt lat="42.83615" lon="-0.02952">
        <ele>1664.7</ele>
        <time>2017-11-03T09:41:10Z</time>
      </trkpt>
      <trkpt lat="42.83614" lon="-0.02953">
        <ele>1665</ele>
        <time>2017-11-03T09:41:11Z</time>
      </trkpt>
      <trkpt lat="42.83604" lon="-0.0297">
        <ele>1666.4</ele>
        <time>2017-11-03T09:41:35Z</time>
      </trkpt>
      <trkpt lat="42.83595" lon="-0.02973">
        <ele>1665.7</ele>
        <time>2017-11-03T09:41:46Z</time>
      </trkpt>
      <trkpt lat="42.83588" lon="-0.02967">
        <ele>1666.4</ele>
        <time>2017-11-03T09:41:56Z</time>
      </trkpt>
      <trkpt lat="42.83579" lon="-0.02969">
        <ele>1666.6</ele>
        <time>2017-11-03T09:42:09Z</time>
      </trkpt>
      <trkpt lat="42.83571" lon="-0.0297">
        <ele>1669.7</ele>
        <time>2017-11-03T09:42:22Z</time>
      </trkpt>
      <trkpt lat="42.8357" lon="-0.0297">
        <ele>1669.7</ele>
        <time>2017-11-03T09:42:23Z</time>
      </trkpt>
      <trkpt lat="42.83554" lon="-0.02971">
        <ele>1677.8</ele>
        <time>2017-11-03T09:42:58Z</time>
      </trkpt>
      <trkpt lat="42.83546" lon="-0.02976">
        <ele>1682.9</ele>
        <time>2017-11-03T09:43:16Z</time>
      </trkpt>
      <trkpt lat="42.83539" lon="-0.02983">
        <ele>1686.5</ele>
        <time>2017-11-03T09:43:35Z</time>
      </trkpt>
      <trkpt lat="42.83539" lon="-0.02984">
        <ele>1686.8</ele>
        <time>2017-11-03T09:43:36Z</time>
      </trkpt>
      <trkpt lat="42.83537" lon="-0.03007">
        <ele>1695.5</ele>
        <time>2017-11-03T09:44:23Z</time>
      </trkpt>
      <trkpt lat="42.83538" lon="-0.03019">
        <ele>1701.4</ele>
        <time>2017-11-03T09:44:51Z</time>
      </trkpt>
      <trkpt lat="42.83539" lon="-0.0302">
        <ele>1701.9</ele>
        <time>2017-11-03T09:44:52Z</time>
      </trkpt>
      <trkpt lat="42.8353" lon="-0.0304">
        <ele>1709.9</ele>
        <time>2017-11-03T09:45:54Z</time>
      </trkpt>
      <trkpt lat="42.8353" lon="-0.03041">
        <ele>1709.9</ele>
        <time>2017-11-03T09:45:55Z</time>
      </trkpt>
      <trkpt lat="42.83522" lon="-0.0306">
        <ele>1717.3</ele>
        <time>2017-11-03T09:46:39Z</time>
      </trkpt>
      <trkpt lat="42.83515" lon="-0.03067">
        <ele>1721.4</ele>
        <time>2017-11-03T09:47:00Z</time>
      </trkpt>
      <trkpt lat="42.83514" lon="-0.03068">
        <ele>1721.5</ele>
        <time>2017-11-03T09:47:01Z</time>
      </trkpt>
      <trkpt lat="42.835" lon="-0.03079">
        <ele>1727.7</ele>
        <time>2017-11-03T09:47:58Z</time>
      </trkpt>
      <trkpt lat="42.83502" lon="-0.0309">
        <ele>1732.3</ele>
        <time>2017-11-03T09:48:18Z</time>
      </trkpt>
      <trkpt lat="42.83502" lon="-0.03091">
        <ele>1732.2</ele>
        <time>2017-11-03T09:48:19Z</time>
      </trkpt>
      <trkpt lat="42.83505" lon="-0.0311">
        <ele>1738.5</ele>
        <time>2017-11-03T09:48:53Z</time>
      </trkpt>
      <trkpt lat="42.835" lon="-0.03119">
        <ele>1741.8</ele>
        <time>2017-11-03T09:49:13Z</time>
      </trkpt>
      <trkpt lat="42.83496" lon="-0.0313">
        <ele>1747.4</ele>
        <time>2017-11-03T09:49:40Z</time>
      </trkpt>
      <trkpt lat="42.83496" lon="-0.03131">
        <ele>1747.2</ele>
        <time>2017-11-03T09:49:41Z</time>
      </trkpt>
      <trkpt lat="42.8349" lon="-0.03152">
        <ele>1754</ele>
        <time>2017-11-03T09:50:16Z</time>
      </trkpt>
      <trkpt lat="42.83487" lon="-0.03163">
        <ele>1755.4</ele>
        <time>2017-11-03T09:50:33Z</time>
      </trkpt>
      <trkpt lat="42.83479" lon="-0.03169">
        <ele>1758.1</ele>
        <time>2017-11-03T09:50:55Z</time>
      </trkpt>
      <trkpt lat="42.83479" lon="-0.03169">
        <ele>1758.2</ele>
        <time>2017-11-03T09:50:56Z</time>
      </trkpt>
      <trkpt lat="42.83466" lon="-0.03184">
        <ele>1764.4</ele>
        <time>2017-11-03T09:51:28Z</time>
      </trkpt>
      <trkpt lat="42.83458" lon="-0.03182">
        <ele>1766.4</ele>
        <time>2017-11-03T09:51:55Z</time>
      </trkpt>
      <trkpt lat="42.83449" lon="-0.03181">
        <ele>1770</ele>
        <time>2017-11-03T09:52:11Z</time>
      </trkpt>
      <trkpt lat="42.83449" lon="-0.03181">
        <ele>1769.8</ele>
        <time>2017-11-03T09:52:12Z</time>
      </trkpt>
      <trkpt lat="42.83432" lon="-0.03183">
        <ele>1776.2</ele>
        <time>2017-11-03T09:52:51Z</time>
      </trkpt>
      <trkpt lat="42.83423" lon="-0.03181">
        <ele>1778.6</ele>
        <time>2017-11-03T09:53:09Z</time>
      </trkpt>
      <trkpt lat="42.83415" lon="-0.03185">
        <ele>1782.4</ele>
        <time>2017-11-03T09:53:36Z</time>
      </trkpt>
      <trkpt lat="42.83414" lon="-0.03185">
        <ele>1782.9</ele>
        <time>2017-11-03T09:53:37Z</time>
      </trkpt>
      <trkpt lat="42.834" lon="-0.03196">
        <ele>1794.5</ele>
        <time>2017-11-03T09:54:28Z</time>
      </trkpt>
      <trkpt lat="42.83404" lon="-0.03207">
        <ele>1797.8</ele>
        <time>2017-11-03T09:54:50Z</time>
      </trkpt>
      <trkpt lat="42.83404" lon="-0.03207">
        <ele>1798</ele>
        <time>2017-11-03T09:54:51Z</time>
      </trkpt>
      <trkpt lat="42.83396" lon="-0.03227">
        <ele>1806.3</ele>
        <time>2017-11-03T09:55:48Z</time>
      </trkpt>
      <trkpt lat="42.83388" lon="-0.03233">
        <ele>1810.6</ele>
        <time>2017-11-03T09:56:09Z</time>
      </trkpt>
      <trkpt lat="42.83388" lon="-0.03233">
        <ele>1810.8</ele>
        <time>2017-11-03T09:56:10Z</time>
      </trkpt>
      <trkpt lat="42.83394" lon="-0.03255">
        <ele>1816.6</ele>
        <time>2017-11-03T09:56:56Z</time>
      </trkpt>
      <trkpt lat="42.83398" lon="-0.03266">
        <ele>1820.6</ele>
        <time>2017-11-03T09:57:14Z</time>
      </trkpt>
      <trkpt lat="42.83398" lon="-0.03266">
        <ele>1820.7</ele>
        <time>2017-11-03T09:57:15Z</time>
      </trkpt>
      <trkpt lat="42.83395" lon="-0.03285">
        <ele>1827.7</ele>
        <time>2017-11-03T09:58:35Z</time>
      </trkpt>
      <trkpt lat="42.83394" lon="-0.03286">
        <ele>1828</ele>
        <time>2017-11-03T09:58:36Z</time>
      </trkpt>
      <trkpt lat="42.83378" lon="-0.0329">
        <ele>1836</ele>
        <time>2017-11-03T09:59:50Z</time>
      </trkpt>
      <trkpt lat="42.83377" lon="-0.0329">
        <ele>1836.1</ele>
        <time>2017-11-03T09:59:51Z</time>
      </trkpt>
      <trkpt lat="42.83362" lon="-0.03281">
        <ele>1836.6</ele>
        <time>2017-11-03T10:00:08Z</time>
      </trkpt>
      <trkpt lat="42.83354" lon="-0.03275">
        <ele>1837</ele>
        <time>2017-11-03T10:00:16Z</time>
      </trkpt>
      <trkpt lat="42.83347" lon="-0.03271">
        <ele>1837</ele>
        <time>2017-11-03T10:00:23Z</time>
      </trkpt>
      <trkpt lat="42.83339" lon="-0.03264">
        <ele>1835.9</ele>
        <time>2017-11-03T10:00:31Z</time>
      </trkpt>
      <trkpt lat="42.83333" lon="-0.03257">
        <ele>1835.7</ele>
        <time>2017-11-03T10:00:38Z</time>
      </trkpt>
      <trkpt lat="42.83325" lon="-0.03252">
        <ele>1836.2</ele>
        <time>2017-11-03T10:00:49Z</time>
      </trkpt>
      <trkpt lat="42.83316" lon="-0.03249">
        <ele>1835.6</ele>
        <time>2017-11-03T10:00:57Z</time>
      </trkpt>
      <trkpt lat="42.83315" lon="-0.03248">
        <ele>1835.6</ele>
        <time>2017-11-03T10:00:58Z</time>
      </trkpt>
      <trkpt lat="42.833" lon="-0.03239">
        <ele>1836.2</ele>
        <time>2017-11-03T10:01:12Z</time>
      </trkpt>
      <trkpt lat="42.83292" lon="-0.03235">
        <ele>1835.6</ele>
        <time>2017-11-03T10:01:20Z</time>
      </trkpt>
      <trkpt lat="42.83284" lon="-0.03232">
        <ele>1835.1</ele>
        <time>2017-11-03T10:01:28Z</time>
      </trkpt>
      <trkpt lat="42.83276" lon="-0.0323">
        <ele>1834.3</ele>
        <time>2017-11-03T10:01:36Z</time>
      </trkpt>
      <trkpt lat="42.83268" lon="-0.03228">
        <ele>1834.9</ele>
        <time>2017-11-03T10:01:43Z</time>
      </trkpt>
      <trkpt lat="42.8326" lon="-0.03224">
        <ele>1835.7</ele>
        <time>2017-11-03T10:01:50Z</time>
      </trkpt>
      <trkpt lat="42.83251" lon="-0.03222">
        <ele>1834.8</ele>
        <time>2017-11-03T10:01:57Z</time>
      </trkpt>
      <trkpt lat="42.83243" lon="-0.03217">
        <ele>1834.7</ele>
        <time>2017-11-03T10:02:05Z</time>
      </trkpt>
      <trkpt lat="42.83242" lon="-0.03216">
        <ele>1834.5</ele>
        <time>2017-11-03T10:02:06Z</time>
      </trkpt>
      <trkpt lat="42.83226" lon="-0.03216">
        <ele>1836.3</ele>
        <time>2017-11-03T10:02:22Z</time>
      </trkpt>
      <trkpt lat="42.83217" lon="-0.03214">
        <ele>1835.6</ele>
        <time>2017-11-03T10:02:29Z</time>
      </trkpt>
      <trkpt lat="42.83208" lon="-0.03214">
        <ele>1836</ele>
        <time>2017-11-03T10:02:37Z</time>
      </trkpt>
      <trkpt lat="42.832" lon="-0.03209">
        <ele>1835.1</ele>
        <time>2017-11-03T10:02:45Z</time>
      </trkpt>
      <trkpt lat="42.83192" lon="-0.03211">
        <ele>1834.1</ele>
        <time>2017-11-03T10:02:53Z</time>
      </trkpt>
      <trkpt lat="42.83184" lon="-0.03213">
        <ele>1833.4</ele>
        <time>2017-11-03T10:03:06Z</time>
      </trkpt>
      <trkpt lat="42.83175" lon="-0.03212">
        <ele>1834.7</ele>
        <time>2017-11-03T10:03:21Z</time>
      </trkpt>
      <trkpt lat="42.83174" lon="-0.03212">
        <ele>1834.4</ele>
        <time>2017-11-03T10:03:22Z</time>
      </trkpt>
      <trkpt lat="42.83158" lon="-0.03213">
        <ele>1841.3</ele>
        <time>2017-11-03T10:03:55Z</time>
      </trkpt>
      <trkpt lat="42.83151" lon="-0.0322">
        <ele>1840.5</ele>
        <time>2017-11-03T10:04:16Z</time>
      </trkpt>
      <trkpt lat="42.83142" lon="-0.03223">
        <ele>1838.5</ele>
        <time>2017-11-03T10:04:31Z</time>
      </trkpt>
      <trkpt lat="42.83142" lon="-0.03223">
        <ele>1838.3</ele>
        <time>2017-11-03T10:04:32Z</time>
      </trkpt>
      <trkpt lat="42.83127" lon="-0.03228">
        <ele>1839.2</ele>
        <time>2017-11-03T10:05:16Z</time>
      </trkpt>
      <trkpt lat="42.83119" lon="-0.03224">
        <ele>1835.6</ele>
        <time>2017-11-03T10:05:36Z</time>
      </trkpt>
      <trkpt lat="42.83119" lon="-0.03223">
        <ele>1835.3</ele>
        <time>2017-11-03T10:05:37Z</time>
      </trkpt>
      <trkpt lat="42.83104" lon="-0.03234">
        <ele>1833</ele>
        <time>2017-11-03T10:06:15Z</time>
      </trkpt>
      <trkpt lat="42.83095" lon="-0.03237">
        <ele>1833</ele>
        <time>2017-11-03T10:06:29Z</time>
      </trkpt>
      <trkpt lat="42.83087" lon="-0.0324">
        <ele>1834.1</ele>
        <time>2017-11-03T10:06:44Z</time>
      </trkpt>
      <trkpt lat="42.83087" lon="-0.03241">
        <ele>1834.2</ele>
        <time>2017-11-03T10:06:45Z</time>
      </trkpt>
      <trkpt lat="42.83074" lon="-0.03227">
        <ele>1832.5</ele>
        <time>2017-11-03T10:07:50Z</time>
      </trkpt>
      <trkpt lat="42.83073" lon="-0.03226">
        <ele>1832.6</ele>
        <time>2017-11-03T10:07:51Z</time>
      </trkpt>
      <trkpt lat="42.8306" lon="-0.03212">
        <ele>1832.3</ele>
        <time>2017-11-03T10:08:08Z</time>
      </trkpt>
      <trkpt lat="42.83054" lon="-0.03203">
        <ele>1832.5</ele>
        <time>2017-11-03T10:08:20Z</time>
      </trkpt>
      <trkpt lat="42.8305" lon="-0.03193">
        <ele>1831.7</ele>
        <time>2017-11-03T10:08:27Z</time>
      </trkpt>
      <trkpt lat="42.83047" lon="-0.03182">
        <ele>1832.6</ele>
        <time>2017-11-03T10:08:38Z</time>
      </trkpt>
      <trkpt lat="42.83039" lon="-0.03185">
        <ele>1833.6</ele>
        <time>2017-11-03T10:09:02Z</time>
      </trkpt>
      <trkpt lat="42.83038" lon="-0.03186">
        <ele>1834</ele>
        <time>2017-11-03T10:09:03Z</time>
      </trkpt>
      <trkpt lat="42.83023" lon="-0.03195">
        <ele>1841.8</ele>
        <time>2017-11-03T10:10:05Z</time>
      </trkpt>
      <trkpt lat="42.83023" lon="-0.03196">
        <ele>1842</ele>
        <time>2017-11-03T10:10:06Z</time>
      </trkpt>
      <trkpt lat="42.83009" lon="-0.03194">
        <ele>1856.4</ele>
        <time>2017-11-03T10:11:24Z</time>
      </trkpt>
      <trkpt lat="42.83009" lon="-0.03193">
        <ele>1857</ele>
        <time>2017-11-03T10:11:25Z</time>
      </trkpt>
      <trkpt lat="42.82993" lon="-0.03193">
        <ele>1865.3</ele>
        <time>2017-11-03T10:12:20Z</time>
      </trkpt>
      <trkpt lat="42.82988" lon="-0.03183">
        <ele>1867</ele>
        <time>2017-11-03T10:12:51Z</time>
      </trkpt>
      <trkpt lat="42.82987" lon="-0.03182">
        <ele>1867.1</ele>
        <time>2017-11-03T10:12:52Z</time>
      </trkpt>
      <trkpt lat="42.82972" lon="-0.0319">
        <ele>1876.7</ele>
        <time>2017-11-03T10:13:45Z</time>
      </trkpt>
      <trkpt lat="42.82965" lon="-0.03198">
        <ele>1880.9</ele>
        <time>2017-11-03T10:14:18Z</time>
      </trkpt>
      <trkpt lat="42.82965" lon="-0.03198">
        <ele>1880.8</ele>
        <time>2017-11-03T10:14:19Z</time>
      </trkpt>
      <trkpt lat="42.82953" lon="-0.03181">
        <ele>1887.3</ele>
        <time>2017-11-03T10:15:00Z</time>
      </trkpt>
      <trkpt lat="42.82946" lon="-0.03173">
        <ele>1889.9</ele>
        <time>2017-11-03T10:15:28Z</time>
      </trkpt>
      <trkpt lat="42.82945" lon="-0.03173">
        <ele>1890.1</ele>
        <time>2017-11-03T10:15:29Z</time>
      </trkpt>
      <trkpt lat="42.8293" lon="-0.03169">
        <ele>1893</ele>
        <time>2017-11-03T10:16:17Z</time>
      </trkpt>
      <trkpt lat="42.82921" lon="-0.03169">
        <ele>1896.7</ele>
        <time>2017-11-03T10:16:36Z</time>
      </trkpt>
      <trkpt lat="42.8292" lon="-0.03169">
        <ele>1896.7</ele>
        <time>2017-11-03T10:16:37Z</time>
      </trkpt>
      <trkpt lat="42.82903" lon="-0.0317">
        <ele>1930.6</ele>
        <time>2017-11-03T10:17:13Z</time>
      </trkpt>
      <trkpt lat="42.82895" lon="-0.03171">
        <ele>1931.2</ele>
        <time>2017-11-03T10:17:27Z</time>
      </trkpt>
      <trkpt lat="42.82887" lon="-0.03167">
        <ele>1932.4</ele>
        <time>2017-11-03T10:17:37Z</time>
      </trkpt>
      <trkpt lat="42.82879" lon="-0.03165">
        <ele>1934.9</ele>
        <time>2017-11-03T10:17:51Z</time>
      </trkpt>
      <trkpt lat="42.82878" lon="-0.03165">
        <ele>1935.1</ele>
        <time>2017-11-03T10:17:52Z</time>
      </trkpt>
      <trkpt lat="42.82862" lon="-0.03168">
        <ele>1942.3</ele>
        <time>2017-11-03T10:18:23Z</time>
      </trkpt>
      <trkpt lat="42.82854" lon="-0.03171">
        <ele>1945.2</ele>
        <time>2017-11-03T10:18:42Z</time>
      </trkpt>
      <trkpt lat="42.82845" lon="-0.03169">
        <ele>1948</ele>
        <time>2017-11-03T10:19:04Z</time>
      </trkpt>
      <trkpt lat="42.82845" lon="-0.03168">
        <ele>1948</ele>
        <time>2017-11-03T10:19:05Z</time>
      </trkpt>
      <trkpt lat="42.82828" lon="-0.03167">
        <ele>1951.2</ele>
        <time>2017-11-03T10:19:57Z</time>
      </trkpt>
      <trkpt lat="42.8282" lon="-0.0317">
        <ele>1954.8</ele>
        <time>2017-11-03T10:20:12Z</time>
      </trkpt>
      <trkpt lat="42.82819" lon="-0.03171">
        <ele>1955</ele>
        <time>2017-11-03T10:20:13Z</time>
      </trkpt>
      <trkpt lat="42.82803" lon="-0.03168">
        <ele>1959.9</ele>
        <time>2017-11-03T10:20:42Z</time>
      </trkpt>
      <trkpt lat="42.82795" lon="-0.0317">
        <ele>1961.6</ele>
        <time>2017-11-03T10:20:57Z</time>
      </trkpt>
      <trkpt lat="42.82786" lon="-0.03172">
        <ele>1966</ele>
        <time>2017-11-03T10:21:20Z</time>
      </trkpt>
      <trkpt lat="42.82786" lon="-0.03171">
        <ele>1966.1</ele>
        <time>2017-11-03T10:21:21Z</time>
      </trkpt>
      <trkpt lat="42.8277" lon="-0.03168">
        <ele>1967.6</ele>
        <time>2017-11-03T10:22:00Z</time>
      </trkpt>
      <trkpt lat="42.82761" lon="-0.0317">
        <ele>1971.4</ele>
        <time>2017-11-03T10:22:49Z</time>
      </trkpt>
      <trkpt lat="42.82761" lon="-0.0317">
        <ele>1971</ele>
        <time>2017-11-03T10:22:50Z</time>
      </trkpt>
      <trkpt lat="42.82747" lon="-0.03159">
        <ele>1975.6</ele>
        <time>2017-11-03T10:23:55Z</time>
      </trkpt>
      <trkpt lat="42.82747" lon="-0.03159">
        <ele>1975.5</ele>
        <time>2017-11-03T10:23:56Z</time>
      </trkpt>
      <trkpt lat="42.82734" lon="-0.03143">
        <ele>1976.3</ele>
        <time>2017-11-03T10:24:49Z</time>
      </trkpt>
      <trkpt lat="42.82726" lon="-0.03139">
        <ele>1979</ele>
        <time>2017-11-03T10:25:11Z</time>
      </trkpt>
      <trkpt lat="42.82725" lon="-0.03138">
        <ele>1979</ele>
        <time>2017-11-03T10:25:12Z</time>
      </trkpt>
      <trkpt lat="42.8271" lon="-0.03129">
        <ele>1981</ele>
        <time>2017-11-03T10:25:50Z</time>
      </trkpt>
      <trkpt lat="42.82703" lon="-0.03122">
        <ele>1984.5</ele>
        <time>2017-11-03T10:26:08Z</time>
      </trkpt>
      <trkpt lat="42.82695" lon="-0.03117">
        <ele>1987.7</ele>
        <time>2017-11-03T10:26:26Z</time>
      </trkpt>
      <trkpt lat="42.82695" lon="-0.03117">
        <ele>1987.8</ele>
        <time>2017-11-03T10:26:27Z</time>
      </trkpt>
      <trkpt lat="42.8268" lon="-0.03106">
        <ele>1992.6</ele>
        <time>2017-11-03T10:27:15Z</time>
      </trkpt>
      <trkpt lat="42.82671" lon="-0.03102">
        <ele>2000.7</ele>
        <time>2017-11-03T10:27:47Z</time>
      </trkpt>
      <trkpt lat="42.82671" lon="-0.03101">
        <ele>2000.7</ele>
        <time>2017-11-03T10:27:48Z</time>
      </trkpt>
      <trkpt lat="42.82657" lon="-0.03092">
        <ele>2001</ele>
        <time>2017-11-03T10:28:36Z</time>
      </trkpt>
      <trkpt lat="42.8265" lon="-0.03086">
        <ele>2006.4</ele>
        <time>2017-11-03T10:28:56Z</time>
      </trkpt>
      <trkpt lat="42.8265" lon="-0.03086">
        <ele>2006.2</ele>
        <time>2017-11-03T10:28:57Z</time>
      </trkpt>
      <trkpt lat="42.82636" lon="-0.03073">
        <ele>2013.6</ele>
        <time>2017-11-03T10:30:10Z</time>
      </trkpt>
      <trkpt lat="42.82635" lon="-0.03072">
        <ele>2013.8</ele>
        <time>2017-11-03T10:30:11Z</time>
      </trkpt>
      <trkpt lat="42.82624" lon="-0.03056">
        <ele>2018.1</ele>
        <time>2017-11-03T10:30:42Z</time>
      </trkpt>
      <trkpt lat="42.82615" lon="-0.03058">
        <ele>2019.1</ele>
        <time>2017-11-03T10:31:03Z</time>
      </trkpt>
      <trkpt lat="42.82607" lon="-0.03064">
        <ele>2021.2</ele>
        <time>2017-11-03T10:31:18Z</time>
      </trkpt>
      <trkpt lat="42.82607" lon="-0.03065">
        <ele>2021.4</ele>
        <time>2017-11-03T10:31:19Z</time>
      </trkpt>
      <trkpt lat="42.82593" lon="-0.0306">
        <ele>2022.6</ele>
        <time>2017-11-03T10:31:56Z</time>
      </trkpt>
      <trkpt lat="42.82588" lon="-0.0305">
        <ele>2022.3</ele>
        <time>2017-11-03T10:32:10Z</time>
      </trkpt>
      <trkpt lat="42.82581" lon="-0.03043">
        <ele>2023.3</ele>
        <time>2017-11-03T10:32:21Z</time>
      </trkpt>
      <trkpt lat="42.8258" lon="-0.03042">
        <ele>2023.6</ele>
        <time>2017-11-03T10:32:22Z</time>
      </trkpt>
      <trkpt lat="42.82565" lon="-0.03041">
        <ele>2023.7</ele>
        <time>2017-11-03T10:32:47Z</time>
      </trkpt>
      <trkpt lat="42.82556" lon="-0.03041">
        <ele>2022.8</ele>
        <time>2017-11-03T10:32:58Z</time>
      </trkpt>
      <trkpt lat="42.82549" lon="-0.03046">
        <ele>2022.3</ele>
        <time>2017-11-03T10:33:11Z</time>
      </trkpt>
      <trkpt lat="42.8254" lon="-0.03049">
        <ele>2021.3</ele>
        <time>2017-11-03T10:33:22Z</time>
      </trkpt>
      <trkpt lat="42.82532" lon="-0.03052">
        <ele>2022.3</ele>
        <time>2017-11-03T10:33:33Z</time>
      </trkpt>
      <trkpt lat="42.82531" lon="-0.03052">
        <ele>2022.1</ele>
        <time>2017-11-03T10:33:34Z</time>
      </trkpt>
      <trkpt lat="42.82515" lon="-0.03057">
        <ele>2023.5</ele>
        <time>2017-11-03T10:33:56Z</time>
      </trkpt>
      <trkpt lat="42.82507" lon="-0.0306">
        <ele>2024.4</ele>
        <time>2017-11-03T10:34:06Z</time>
      </trkpt>
      <trkpt lat="42.82499" lon="-0.03063">
        <ele>2023.7</ele>
        <time>2017-11-03T10:34:14Z</time>
      </trkpt>
      <trkpt lat="42.82491" lon="-0.03068">
        <ele>2022.7</ele>
        <time>2017-11-03T10:34:23Z</time>
      </trkpt>
      <trkpt lat="42.82483" lon="-0.03073">
        <ele>2022.3</ele>
        <time>2017-11-03T10:34:32Z</time>
      </trkpt>
      <trkpt lat="42.82476" lon="-0.03081">
        <ele>2024.1</ele>
        <time>2017-11-03T10:34:43Z</time>
      </trkpt>
      <trkpt lat="42.82476" lon="-0.03082">
        <ele>2023.9</ele>
        <time>2017-11-03T10:34:44Z</time>
      </trkpt>
      <trkpt lat="42.82463" lon="-0.0309">
        <ele>2027</ele>
        <time>2017-11-03T10:35:08Z</time>
      </trkpt>
      <trkpt lat="42.82456" lon="-0.03096">
        <ele>2027.3</ele>
        <time>2017-11-03T10:35:20Z</time>
      </trkpt>
      <trkpt lat="42.82449" lon="-0.03103">
        <ele>2026.7</ele>
        <time>2017-11-03T10:35:30Z</time>
      </trkpt>
      <trkpt lat="42.82443" lon="-0.03112">
        <ele>2025.9</ele>
        <time>2017-11-03T10:35:44Z</time>
      </trkpt>
      <trkpt lat="42.82435" lon="-0.03114">
        <ele>2024.9</ele>
        <time>2017-11-03T10:35:51Z</time>
      </trkpt>
      <trkpt lat="42.82434" lon="-0.03114">
        <ele>2024.7</ele>
        <time>2017-11-03T10:35:52Z</time>
      </trkpt>
      <trkpt lat="42.8242" lon="-0.03108">
        <ele>2025.3</ele>
        <time>2017-11-03T10:36:08Z</time>
      </trkpt>
      <trkpt lat="42.82411" lon="-0.03109">
        <ele>2025.5</ele>
        <time>2017-11-03T10:36:17Z</time>
      </trkpt>
      <trkpt lat="42.82403" lon="-0.03108">
        <ele>2026.6</ele>
        <time>2017-11-03T10:36:29Z</time>
      </trkpt>
      <trkpt lat="42.82394" lon="-0.03108">
        <ele>2025.7</ele>
        <time>2017-11-03T10:37:05Z</time>
      </trkpt>
      <trkpt lat="42.82394" lon="-0.03108">
        <ele>2025.4</ele>
        <time>2017-11-03T10:37:06Z</time>
      </trkpt>
      <trkpt lat="42.82398" lon="-0.03097">
        <ele>2025</ele>
        <time>2017-11-03T10:45:49Z</time>
      </trkpt>
      <trkpt lat="42.82399" lon="-0.03085">
        <ele>2025.5</ele>
        <time>2017-11-03T10:47:13Z</time>
      </trkpt>
      <trkpt lat="42.82401" lon="-0.03097">
        <ele>2027.4</ele>
        <time>2017-11-03T10:58:45Z</time>
      </trkpt>
      <trkpt lat="42.82406" lon="-0.03108">
        <ele>2028.3</ele>
        <time>2017-11-03T11:27:46Z</time>
      </trkpt>
      <trkpt lat="42.8242" lon="-0.03119">
        <ele>2028.2</ele>
        <time>2017-11-03T11:28:30Z</time>
      </trkpt>
      <trkpt lat="42.82429" lon="-0.03116">
        <ele>2027.7</ele>
        <time>2017-11-03T11:28:43Z</time>
      </trkpt>
      <trkpt lat="42.82437" lon="-0.03112">
        <ele>2026.6</ele>
        <time>2017-11-03T11:28:54Z</time>
      </trkpt>
      <trkpt lat="42.82437" lon="-0.03111">
        <ele>2027.1</ele>
        <time>2017-11-03T11:28:55Z</time>
      </trkpt>
      <trkpt lat="42.8245" lon="-0.03097">
        <ele>2029.9</ele>
        <time>2017-11-03T11:29:16Z</time>
      </trkpt>
      <trkpt lat="42.82458" lon="-0.03092">
        <ele>2031.2</ele>
        <time>2017-11-03T11:29:29Z</time>
      </trkpt>
      <trkpt lat="42.82465" lon="-0.03085">
        <ele>2030.5</ele>
        <time>2017-11-03T11:29:42Z</time>
      </trkpt>
      <trkpt lat="42.82472" lon="-0.03079">
        <ele>2030.5</ele>
        <time>2017-11-03T11:33:16Z</time>
      </trkpt>
      <trkpt lat="42.82473" lon="-0.03078">
        <ele>2030.1</ele>
        <time>2017-11-03T11:33:17Z</time>
      </trkpt>
      <trkpt lat="42.82487" lon="-0.03068">
        <ele>2027.7</ele>
        <time>2017-11-03T11:33:39Z</time>
      </trkpt>
      <trkpt lat="42.82495" lon="-0.03065">
        <ele>2027</ele>
        <time>2017-11-03T11:33:48Z</time>
      </trkpt>
      <trkpt lat="42.82503" lon="-0.03063">
        <ele>2028.1</ele>
        <time>2017-11-03T11:33:57Z</time>
      </trkpt>
      <trkpt lat="42.82512" lon="-0.03058">
        <ele>2027.1</ele>
        <time>2017-11-03T11:34:10Z</time>
      </trkpt>
      <trkpt lat="42.82519" lon="-0.03052">
        <ele>2028.4</ele>
        <time>2017-11-03T11:34:22Z</time>
      </trkpt>
      <trkpt lat="42.8252" lon="-0.03052">
        <ele>2028.5</ele>
        <time>2017-11-03T11:34:23Z</time>
      </trkpt>
      <trkpt lat="42.82534" lon="-0.03051">
        <ele>2024.5</ele>
        <time>2017-11-03T11:34:45Z</time>
      </trkpt>
      <trkpt lat="42.82542" lon="-0.03048">
        <ele>2023.5</ele>
        <time>2017-11-03T11:34:56Z</time>
      </trkpt>
      <trkpt lat="42.82551" lon="-0.03045">
        <ele>2025.3</ele>
        <time>2017-11-03T11:35:05Z</time>
      </trkpt>
      <trkpt lat="42.8256" lon="-0.03046">
        <ele>2025.7</ele>
        <time>2017-11-03T11:35:14Z</time>
      </trkpt>
      <trkpt lat="42.82568" lon="-0.03045">
        <ele>2026</ele>
        <time>2017-11-03T11:35:23Z</time>
      </trkpt>
      <trkpt lat="42.82577" lon="-0.03047">
        <ele>2028.9</ele>
        <time>2017-11-03T11:35:34Z</time>
      </trkpt>
      <trkpt lat="42.82577" lon="-0.03048">
        <ele>2028.7</ele>
        <time>2017-11-03T11:35:35Z</time>
      </trkpt>
      <trkpt lat="42.8259" lon="-0.03059">
        <ele>2026.4</ele>
        <time>2017-11-03T11:35:59Z</time>
      </trkpt>
      <trkpt lat="42.82598" lon="-0.03061">
        <ele>2025.4</ele>
        <time>2017-11-03T11:36:09Z</time>
      </trkpt>
      <trkpt lat="42.82607" lon="-0.03058">
        <ele>2024.1</ele>
        <time>2017-11-03T11:36:24Z</time>
      </trkpt>
      <trkpt lat="42.82615" lon="-0.0306">
        <ele>2023.6</ele>
        <time>2017-11-03T11:36:42Z</time>
      </trkpt>
      <trkpt lat="42.82616" lon="-0.03061">
        <ele>2023.4</ele>
        <time>2017-11-03T11:36:43Z</time>
      </trkpt>
      <trkpt lat="42.8263" lon="-0.03072">
        <ele>2017.9</ele>
        <time>2017-11-03T11:37:11Z</time>
      </trkpt>
      <trkpt lat="42.82638" lon="-0.03076">
        <ele>2015.6</ele>
        <time>2017-11-03T11:37:26Z</time>
      </trkpt>
      <trkpt lat="42.82644" lon="-0.03084">
        <ele>2009.7</ele>
        <time>2017-11-03T11:37:46Z</time>
      </trkpt>
      <trkpt lat="42.82645" lon="-0.03084">
        <ele>2009.5</ele>
        <time>2017-11-03T11:37:47Z</time>
      </trkpt>
      <trkpt lat="42.82661" lon="-0.03092">
        <ele>2003.7</ele>
        <time>2017-11-03T11:38:14Z</time>
      </trkpt>
      <trkpt lat="42.82668" lon="-0.031">
        <ele>2003.7</ele>
        <time>2017-11-03T11:38:46Z</time>
      </trkpt>
      <trkpt lat="42.82676" lon="-0.03104">
        <ele>1997.8</ele>
        <time>2017-11-03T11:39:10Z</time>
      </trkpt>
      <trkpt lat="42.82677" lon="-0.03104">
        <ele>1997.6</ele>
        <time>2017-11-03T11:39:11Z</time>
      </trkpt>
      <trkpt lat="42.82691" lon="-0.03117">
        <ele>1992.4</ele>
        <time>2017-11-03T11:39:46Z</time>
      </trkpt>
      <trkpt lat="42.82698" lon="-0.03123">
        <ele>1988.1</ele>
        <time>2017-11-03T11:40:07Z</time>
      </trkpt>
      <trkpt lat="42.82705" lon="-0.0313">
        <ele>1985.8</ele>
        <time>2017-11-03T11:40:22Z</time>
      </trkpt>
      <trkpt lat="42.82706" lon="-0.03131">
        <ele>1985.8</ele>
        <time>2017-11-03T11:40:23Z</time>
      </trkpt>
      <trkpt lat="42.82721" lon="-0.03137">
        <ele>1982.1</ele>
        <time>2017-11-03T11:41:23Z</time>
      </trkpt>
      <trkpt lat="42.82726" lon="-0.03147">
        <ele>1980.1</ele>
        <time>2017-11-03T11:41:49Z</time>
      </trkpt>
      <trkpt lat="42.82726" lon="-0.03147">
        <ele>1980.2</ele>
        <time>2017-11-03T11:41:50Z</time>
      </trkpt>
      <trkpt lat="42.82742" lon="-0.03156">
        <ele>1980.2</ele>
        <time>2017-11-03T11:42:28Z</time>
      </trkpt>
      <trkpt lat="42.8275" lon="-0.03157">
        <ele>1976.7</ele>
        <time>2017-11-03T11:42:55Z</time>
      </trkpt>
      <trkpt lat="42.82751" lon="-0.03157">
        <ele>1976.5</ele>
        <time>2017-11-03T11:42:56Z</time>
      </trkpt>
      <trkpt lat="42.82768" lon="-0.03161">
        <ele>1971.9</ele>
        <time>2017-11-03T11:43:55Z</time>
      </trkpt>
      <trkpt lat="42.82776" lon="-0.03166">
        <ele>1970.8</ele>
        <time>2017-11-03T11:44:33Z</time>
      </trkpt>
      <trkpt lat="42.82776" lon="-0.03167">
        <ele>1971</ele>
        <time>2017-11-03T11:44:34Z</time>
      </trkpt>
      <trkpt lat="42.82793" lon="-0.03168">
        <ele>1966.8</ele>
        <time>2017-11-03T11:45:09Z</time>
      </trkpt>
      <trkpt lat="42.82801" lon="-0.03171">
        <ele>1965.1</ele>
        <time>2017-11-03T11:45:28Z</time>
      </trkpt>
      <trkpt lat="42.8281" lon="-0.03169">
        <ele>1962.1</ele>
        <time>2017-11-03T11:45:43Z</time>
      </trkpt>
      <trkpt lat="42.82811" lon="-0.03168">
        <ele>1962</ele>
        <time>2017-11-03T11:45:44Z</time>
      </trkpt>
      <trkpt lat="42.82827" lon="-0.03171">
        <ele>1958.4</ele>
        <time>2017-11-03T11:46:27Z</time>
      </trkpt>
      <trkpt lat="42.82835" lon="-0.03171">
        <ele>1954.7</ele>
        <time>2017-11-03T11:46:45Z</time>
      </trkpt>
      <trkpt lat="42.82844" lon="-0.03171">
        <ele>1952.1</ele>
        <time>2017-11-03T11:47:07Z</time>
      </trkpt>
      <trkpt lat="42.82845" lon="-0.03172">
        <ele>1951.9</ele>
        <time>2017-11-03T11:47:08Z</time>
      </trkpt>
      <trkpt lat="42.8286" lon="-0.03167">
        <ele>1945.8</ele>
        <time>2017-11-03T11:47:43Z</time>
      </trkpt>
      <trkpt lat="42.82869" lon="-0.03167">
        <ele>1940.3</ele>
        <time>2017-11-03T11:48:08Z</time>
      </trkpt>
      <trkpt lat="42.82877" lon="-0.03171">
        <ele>1936.8</ele>
        <time>2017-11-03T11:48:18Z</time>
      </trkpt>
      <trkpt lat="42.82878" lon="-0.03171">
        <ele>1936.5</ele>
        <time>2017-11-03T11:48:19Z</time>
      </trkpt>
      <trkpt lat="42.82894" lon="-0.03171">
        <ele>1935.1</ele>
        <time>2017-11-03T11:48:39Z</time>
      </trkpt>
      <trkpt lat="42.82903" lon="-0.0317">
        <ele>1934.9</ele>
        <time>2017-11-03T11:48:51Z</time>
      </trkpt>
      <trkpt lat="42.82912" lon="-0.03171">
        <ele>1932.9</ele>
        <time>2017-11-03T11:49:09Z</time>
      </trkpt>
      <trkpt lat="42.8292" lon="-0.0317">
        <ele>1930.4</ele>
        <time>2017-11-03T11:49:24Z</time>
      </trkpt>
      <trkpt lat="42.82921" lon="-0.0317">
        <ele>1930.1</ele>
        <time>2017-11-03T11:49:25Z</time>
      </trkpt>
      <trkpt lat="42.82937" lon="-0.03172">
        <ele>1925.9</ele>
        <time>2017-11-03T11:49:46Z</time>
      </trkpt>
      <trkpt lat="42.82945" lon="-0.03176">
        <ele>1924.3</ele>
        <time>2017-11-03T11:50:00Z</time>
      </trkpt>
      <trkpt lat="42.82953" lon="-0.03182">
        <ele>1918.4</ele>
        <time>2017-11-03T11:50:26Z</time>
      </trkpt>
      <trkpt lat="42.82956" lon="-0.03192">
        <ele>1916</ele>
        <time>2017-11-03T11:50:42Z</time>
      </trkpt>
      <trkpt lat="42.82957" lon="-0.03193">
        <ele>1916.3</ele>
        <time>2017-11-03T11:50:43Z</time>
      </trkpt>
      <trkpt lat="42.82971" lon="-0.03191">
        <ele>1909.6</ele>
        <time>2017-11-03T11:51:23Z</time>
      </trkpt>
      <trkpt lat="42.82979" lon="-0.03185">
        <ele>1903.6</ele>
        <time>2017-11-03T11:52:00Z</time>
      </trkpt>
      <trkpt lat="42.82979" lon="-0.03185">
        <ele>1903.3</ele>
        <time>2017-11-03T11:52:01Z</time>
      </trkpt>
      <trkpt lat="42.82995" lon="-0.03188">
        <ele>1897.8</ele>
        <time>2017-11-03T11:52:51Z</time>
      </trkpt>
      <trkpt lat="42.83004" lon="-0.03191">
        <ele>1892.2</ele>
        <time>2017-11-03T11:53:37Z</time>
      </trkpt>
      <trkpt lat="42.83004" lon="-0.03192">
        <ele>1892.2</ele>
        <time>2017-11-03T11:53:38Z</time>
      </trkpt>
      <trkpt lat="42.83017" lon="-0.032">
        <ele>1880.6</ele>
        <time>2017-11-03T11:54:50Z</time>
      </trkpt>
      <trkpt lat="42.83018" lon="-0.032">
        <ele>1880.4</ele>
        <time>2017-11-03T11:54:51Z</time>
      </trkpt>
      <trkpt lat="42.83035" lon="-0.03198">
        <ele>1869.6</ele>
        <time>2017-11-03T11:55:52Z</time>
      </trkpt>
      <trkpt lat="42.83041" lon="-0.03206">
        <ele>1867.6</ele>
        <time>2017-11-03T11:56:30Z</time>
      </trkpt>
      <trkpt lat="42.83041" lon="-0.03207">
        <ele>1867.8</ele>
        <time>2017-11-03T11:56:31Z</time>
      </trkpt>
      <trkpt lat="42.83055" lon="-0.03218">
        <ele>1867.2</ele>
        <time>2017-11-03T11:56:49Z</time>
      </trkpt>
      <trkpt lat="42.83064" lon="-0.0322">
        <ele>1867.6</ele>
        <time>2017-11-03T11:56:59Z</time>
      </trkpt>
      <trkpt lat="42.83072" lon="-0.03223">
        <ele>1867.3</ele>
        <time>2017-11-03T11:57:07Z</time>
      </trkpt>
      <trkpt lat="42.83078" lon="-0.03229">
        <ele>1868.9</ele>
        <time>2017-11-03T11:57:18Z</time>
      </trkpt>
      <trkpt lat="42.83085" lon="-0.03235">
        <ele>1867.3</ele>
        <time>2017-11-03T11:57:28Z</time>
      </trkpt>
      <trkpt lat="42.83093" lon="-0.0324">
        <ele>1868.4</ele>
        <time>2017-11-03T11:57:36Z</time>
      </trkpt>
      <trkpt lat="42.83094" lon="-0.03241">
        <ele>1868.5</ele>
        <time>2017-11-03T11:57:37Z</time>
      </trkpt>
      <trkpt lat="42.83105" lon="-0.03227">
        <ele>1868.2</ele>
        <time>2017-11-03T11:58:21Z</time>
      </trkpt>
      <trkpt lat="42.83111" lon="-0.03219">
        <ele>1871.1</ele>
        <time>2017-11-03T11:58:44Z</time>
      </trkpt>
      <trkpt lat="42.83111" lon="-0.03218">
        <ele>1871.1</ele>
        <time>2017-11-03T11:58:45Z</time>
      </trkpt>
      <trkpt lat="42.83128" lon="-0.03223">
        <ele>1871.4</ele>
        <time>2017-11-03T11:59:53Z</time>
      </trkpt>
      <trkpt lat="42.83128" lon="-0.03223">
        <ele>1871.1</ele>
        <time>2017-11-03T11:59:54Z</time>
      </trkpt>
      <trkpt lat="42.83143" lon="-0.03211">
        <ele>1876.4</ele>
        <time>2017-11-03T12:00:27Z</time>
      </trkpt>
      <trkpt lat="42.8315" lon="-0.03216">
        <ele>1877.4</ele>
        <time>2017-11-03T12:00:44Z</time>
      </trkpt>
      <trkpt lat="42.83159" lon="-0.03214">
        <ele>1872.3</ele>
        <time>2017-11-03T12:01:05Z</time>
      </trkpt>
      <trkpt lat="42.8316" lon="-0.03213">
        <ele>1872.3</ele>
        <time>2017-11-03T12:01:06Z</time>
      </trkpt>
      <trkpt lat="42.83176" lon="-0.03211">
        <ele>1870.5</ele>
        <time>2017-11-03T12:01:24Z</time>
      </trkpt>
      <trkpt lat="42.83185" lon="-0.03211">
        <ele>1870.4</ele>
        <time>2017-11-03T12:01:32Z</time>
      </trkpt>
      <trkpt lat="42.83194" lon="-0.03213">
        <ele>1871.3</ele>
        <time>2017-11-03T12:01:43Z</time>
      </trkpt>
      <trkpt lat="42.83202" lon="-0.03213">
        <ele>1871.2</ele>
        <time>2017-11-03T12:02:07Z</time>
      </trkpt>
      <trkpt lat="42.8321" lon="-0.03213">
        <ele>1871.2</ele>
        <time>2017-11-03T12:02:23Z</time>
      </trkpt>
      <trkpt lat="42.83211" lon="-0.03213">
        <ele>1871</ele>
        <time>2017-11-03T12:02:24Z</time>
      </trkpt>
      <trkpt lat="42.83227" lon="-0.0321">
        <ele>1870.6</ele>
        <time>2017-11-03T12:02:41Z</time>
      </trkpt>
      <trkpt lat="42.83235" lon="-0.03213">
        <ele>1869.4</ele>
        <time>2017-11-03T12:02:49Z</time>
      </trkpt>
      <trkpt lat="42.83244" lon="-0.03216">
        <ele>1870.4</ele>
        <time>2017-11-03T12:02:57Z</time>
      </trkpt>
      <trkpt lat="42.83252" lon="-0.03219">
        <ele>1870.2</ele>
        <time>2017-11-03T12:03:04Z</time>
      </trkpt>
      <trkpt lat="42.8326" lon="-0.03221">
        <ele>1870.3</ele>
        <time>2017-11-03T12:03:11Z</time>
      </trkpt>
      <trkpt lat="42.83268" lon="-0.03224">
        <ele>1871.7</ele>
        <time>2017-11-03T12:03:18Z</time>
      </trkpt>
      <trkpt lat="42.83276" lon="-0.03228">
        <ele>1870.3</ele>
        <time>2017-11-03T12:03:26Z</time>
      </trkpt>
      <trkpt lat="42.83277" lon="-0.03228">
        <ele>1870.4</ele>
        <time>2017-11-03T12:03:27Z</time>
      </trkpt>
      <trkpt lat="42.83292" lon="-0.03235">
        <ele>1870</ele>
        <time>2017-11-03T12:03:44Z</time>
      </trkpt>
      <trkpt lat="42.833" lon="-0.03239">
        <ele>1869.8</ele>
        <time>2017-11-03T12:03:51Z</time>
      </trkpt>
      <trkpt lat="42.83309" lon="-0.03243">
        <ele>1869.9</ele>
        <time>2017-11-03T12:03:59Z</time>
      </trkpt>
      <trkpt lat="42.83317" lon="-0.03246">
        <ele>1870.8</ele>
        <time>2017-11-03T12:04:08Z</time>
      </trkpt>
      <trkpt lat="42.83324" lon="-0.0325">
        <ele>1872.1</ele>
        <time>2017-11-03T12:04:16Z</time>
      </trkpt>
      <trkpt lat="42.83331" lon="-0.03257">
        <ele>1871.4</ele>
        <time>2017-11-03T12:04:24Z</time>
      </trkpt>
      <trkpt lat="42.83338" lon="-0.03262">
        <ele>1871.2</ele>
        <time>2017-11-03T12:04:32Z</time>
      </trkpt>
      <trkpt lat="42.83339" lon="-0.03263">
        <ele>1871.1</ele>
        <time>2017-11-03T12:04:33Z</time>
      </trkpt>
      <trkpt lat="42.83354" lon="-0.03271">
        <ele>1870.6</ele>
        <time>2017-11-03T12:04:46Z</time>
      </trkpt>
      <trkpt lat="42.83361" lon="-0.03276">
        <ele>1872.1</ele>
        <time>2017-11-03T12:04:53Z</time>
      </trkpt>
      <trkpt lat="42.83369" lon="-0.03281">
        <ele>1872.6</ele>
        <time>2017-11-03T12:05:02Z</time>
      </trkpt>
      <trkpt lat="42.83376" lon="-0.03288">
        <ele>1873</ele>
        <time>2017-11-03T12:08:42Z</time>
      </trkpt>
      <trkpt lat="42.83376" lon="-0.03289">
        <ele>1872.7</ele>
        <time>2017-11-03T12:08:43Z</time>
      </trkpt>
      <trkpt lat="42.83393" lon="-0.03286">
        <ele>1864.3</ele>
        <time>2017-11-03T12:09:17Z</time>
      </trkpt>
      <trkpt lat="42.83393" lon="-0.03274">
        <ele>1857.1</ele>
        <time>2017-11-03T12:09:43Z</time>
      </trkpt>
      <trkpt lat="42.83393" lon="-0.03273">
        <ele>1856.6</ele>
        <time>2017-11-03T12:09:44Z</time>
      </trkpt>
      <trkpt lat="42.8339" lon="-0.03252">
        <ele>1851.3</ele>
        <time>2017-11-03T12:10:05Z</time>
      </trkpt>
      <trkpt lat="42.83383" lon="-0.03246">
        <ele>1849.6</ele>
        <time>2017-11-03T12:10:12Z</time>
      </trkpt>
      <trkpt lat="42.83388" lon="-0.03238">
        <ele>1845.9</ele>
        <time>2017-11-03T12:10:31Z</time>
      </trkpt>
      <trkpt lat="42.83391" lon="-0.03226">
        <ele>1841.7</ele>
        <time>2017-11-03T12:10:48Z</time>
      </trkpt>
      <trkpt lat="42.83392" lon="-0.03226">
        <ele>1841.3</ele>
        <time>2017-11-03T12:10:49Z</time>
      </trkpt>
      <trkpt lat="42.83398" lon="-0.03208">
        <ele>1833.2</ele>
        <time>2017-11-03T12:11:21Z</time>
      </trkpt>
      <trkpt lat="42.83402" lon="-0.03197">
        <ele>1827.5</ele>
        <time>2017-11-03T12:11:40Z</time>
      </trkpt>
      <trkpt lat="42.83409" lon="-0.0319">
        <ele>1822.2</ele>
        <time>2017-11-03T12:12:05Z</time>
      </trkpt>
      <trkpt lat="42.83409" lon="-0.0319">
        <ele>1822</ele>
        <time>2017-11-03T12:12:06Z</time>
      </trkpt>
      <trkpt lat="42.83425" lon="-0.03191">
        <ele>1814.2</ele>
        <time>2017-11-03T12:12:50Z</time>
      </trkpt>
      <trkpt lat="42.83433" lon="-0.03187">
        <ele>1810</ele>
        <time>2017-11-03T12:13:08Z</time>
      </trkpt>
      <trkpt lat="42.83434" lon="-0.03187">
        <ele>1809.9</ele>
        <time>2017-11-03T12:13:09Z</time>
      </trkpt>
      <trkpt lat="42.83449" lon="-0.03187">
        <ele>1805.1</ele>
        <time>2017-11-03T12:13:32Z</time>
      </trkpt>
      <trkpt lat="42.83457" lon="-0.03191">
        <ele>1802.5</ele>
        <time>2017-11-03T12:13:50Z</time>
      </trkpt>
      <trkpt lat="42.83465" lon="-0.03185">
        <ele>1800</ele>
        <time>2017-11-03T12:14:11Z</time>
      </trkpt>
      <trkpt lat="42.83466" lon="-0.03184">
        <ele>1799.8</ele>
        <time>2017-11-03T12:14:12Z</time>
      </trkpt>
      <trkpt lat="42.8348" lon="-0.03173">
        <ele>1796</ele>
        <time>2017-11-03T12:14:33Z</time>
      </trkpt>
      <trkpt lat="42.83485" lon="-0.03163">
        <ele>1792.3</ele>
        <time>2017-11-03T12:14:46Z</time>
      </trkpt>
      <trkpt lat="42.83489" lon="-0.03153">
        <ele>1789.1</ele>
        <time>2017-11-03T12:14:58Z</time>
      </trkpt>
      <trkpt lat="42.83494" lon="-0.03142">
        <ele>1785.4</ele>
        <time>2017-11-03T12:15:10Z</time>
      </trkpt>
      <trkpt lat="42.83497" lon="-0.03132">
        <ele>1780</ele>
        <time>2017-11-03T12:15:24Z</time>
      </trkpt>
      <trkpt lat="42.83498" lon="-0.0313">
        <ele>1779.6</ele>
        <time>2017-11-03T12:15:25Z</time>
      </trkpt>
      <trkpt lat="42.83506" lon="-0.03111">
        <ele>1773.6</ele>
        <time>2017-11-03T12:15:54Z</time>
      </trkpt>
      <trkpt lat="42.83499" lon="-0.03103">
        <ele>1769.2</ele>
        <time>2017-11-03T12:16:15Z</time>
      </trkpt>
      <trkpt lat="42.83497" lon="-0.03091">
        <ele>1767.7</ele>
        <time>2017-11-03T12:16:28Z</time>
      </trkpt>
      <trkpt lat="42.83497" lon="-0.0309">
        <ele>1767.2</ele>
        <time>2017-11-03T12:16:29Z</time>
      </trkpt>
      <trkpt lat="42.8351" lon="-0.0308">
        <ele>1760.8</ele>
        <time>2017-11-03T12:17:02Z</time>
      </trkpt>
      <trkpt lat="42.83518" lon="-0.03074">
        <ele>1757.5</ele>
        <time>2017-11-03T12:17:23Z</time>
      </trkpt>
      <trkpt lat="42.83522" lon="-0.03063">
        <ele>1753.6</ele>
        <time>2017-11-03T12:17:40Z</time>
      </trkpt>
      <trkpt lat="42.83522" lon="-0.03062">
        <ele>1753.2</ele>
        <time>2017-11-03T12:17:41Z</time>
      </trkpt>
      <trkpt lat="42.83533" lon="-0.03046">
        <ele>1744.4</ele>
        <time>2017-11-03T12:18:20Z</time>
      </trkpt>
      <trkpt lat="42.83536" lon="-0.03035">
        <ele>1740.1</ele>
        <time>2017-11-03T12:18:33Z</time>
      </trkpt>
      <trkpt lat="42.83536" lon="-0.03023">
        <ele>1737.7</ele>
        <time>2017-11-03T12:18:49Z</time>
      </trkpt>
      <trkpt lat="42.83536" lon="-0.03022">
        <ele>1737.4</ele>
        <time>2017-11-03T12:18:50Z</time>
      </trkpt>
      <trkpt lat="42.83536" lon="-0.03">
        <ele>1725.9</ele>
        <time>2017-11-03T12:19:27Z</time>
      </trkpt>
      <trkpt lat="42.83539" lon="-0.02989">
        <ele>1722.8</ele>
        <time>2017-11-03T12:19:41Z</time>
      </trkpt>
      <trkpt lat="42.83546" lon="-0.02981">
        <ele>1718.6</ele>
        <time>2017-11-03T12:19:57Z</time>
      </trkpt>
      <trkpt lat="42.83546" lon="-0.02981">
        <ele>1718.3</ele>
        <time>2017-11-03T12:19:58Z</time>
      </trkpt>
      <trkpt lat="42.83562" lon="-0.02979">
        <ele>1711.6</ele>
        <time>2017-11-03T12:20:24Z</time>
      </trkpt>
      <trkpt lat="42.8357" lon="-0.02975">
        <ele>1708.5</ele>
        <time>2017-11-03T12:20:36Z</time>
      </trkpt>
      <trkpt lat="42.83578" lon="-0.02976">
        <ele>1705.5</ele>
        <time>2017-11-03T12:20:49Z</time>
      </trkpt>
      <trkpt lat="42.83585" lon="-0.02981">
        <ele>1702.9</ele>
        <time>2017-11-03T12:20:58Z</time>
      </trkpt>
      <trkpt lat="42.83594" lon="-0.0298">
        <ele>1703.7</ele>
        <time>2017-11-03T12:21:06Z</time>
      </trkpt>
      <trkpt lat="42.83595" lon="-0.02979">
        <ele>1703.6</ele>
        <time>2017-11-03T12:21:07Z</time>
      </trkpt>
      <trkpt lat="42.83607" lon="-0.02966">
        <ele>1704.1</ele>
        <time>2017-11-03T12:21:22Z</time>
      </trkpt>
      <trkpt lat="42.83611" lon="-0.02956">
        <ele>1703.6</ele>
        <time>2017-11-03T12:21:29Z</time>
      </trkpt>
      <trkpt lat="42.83619" lon="-0.02949">
        <ele>1702</ele>
        <time>2017-11-03T12:21:37Z</time>
      </trkpt>
      <trkpt lat="42.83626" lon="-0.02943">
        <ele>1702</ele>
        <time>2017-11-03T12:21:46Z</time>
      </trkpt>
      <trkpt lat="42.83634" lon="-0.02938">
        <ele>1702.4</ele>
        <time>2017-11-03T12:21:54Z</time>
      </trkpt>
      <trkpt lat="42.83641" lon="-0.02932">
        <ele>1702.8</ele>
        <time>2017-11-03T12:22:02Z</time>
      </trkpt>
      <trkpt lat="42.83646" lon="-0.02922">
        <ele>1702.3</ele>
        <time>2017-11-03T12:22:11Z</time>
      </trkpt>
      <trkpt lat="42.83646" lon="-0.02921">
        <ele>1702.2</ele>
        <time>2017-11-03T12:22:12Z</time>
      </trkpt>
      <trkpt lat="42.8366" lon="-0.02911">
        <ele>1701.9</ele>
        <time>2017-11-03T12:22:30Z</time>
      </trkpt>
      <trkpt lat="42.83669" lon="-0.02909">
        <ele>1701.9</ele>
        <time>2017-11-03T12:22:42Z</time>
      </trkpt>
      <trkpt lat="42.83676" lon="-0.02904">
        <ele>1701.1</ele>
        <time>2017-11-03T12:22:51Z</time>
      </trkpt>
      <trkpt lat="42.83685" lon="-0.02902">
        <ele>1700.5</ele>
        <time>2017-11-03T12:23:00Z</time>
      </trkpt>
      <trkpt lat="42.83693" lon="-0.02898">
        <ele>1700.2</ele>
        <time>2017-11-03T12:23:10Z</time>
      </trkpt>
      <trkpt lat="42.83701" lon="-0.02896">
        <ele>1700.3</ele>
        <time>2017-11-03T12:23:22Z</time>
      </trkpt>
      <trkpt lat="42.83702" lon="-0.02896">
        <ele>1700.2</ele>
        <time>2017-11-03T12:23:23Z</time>
      </trkpt>
      <trkpt lat="42.83716" lon="-0.02891">
        <ele>1698.8</ele>
        <time>2017-11-03T12:23:41Z</time>
      </trkpt>
      <trkpt lat="42.83723" lon="-0.02884">
        <ele>1698.6</ele>
        <time>2017-11-03T12:23:49Z</time>
      </trkpt>
      <trkpt lat="42.83726" lon="-0.02874">
        <ele>1698.9</ele>
        <time>2017-11-03T12:23:57Z</time>
      </trkpt>
      <trkpt lat="42.83734" lon="-0.0287">
        <ele>1696.2</ele>
        <time>2017-11-03T12:24:07Z</time>
      </trkpt>
      <trkpt lat="42.83743" lon="-0.02867">
        <ele>1694.6</ele>
        <time>2017-11-03T12:24:18Z</time>
      </trkpt>
      <trkpt lat="42.8375" lon="-0.02862">
        <ele>1695</ele>
        <time>2017-11-03T12:24:28Z</time>
      </trkpt>
      <trkpt lat="42.83751" lon="-0.02861">
        <ele>1695.1</ele>
        <time>2017-11-03T12:24:29Z</time>
      </trkpt>
      <trkpt lat="42.83765" lon="-0.02849">
        <ele>1691.3</ele>
        <time>2017-11-03T12:25:11Z</time>
      </trkpt>
      <trkpt lat="42.83772" lon="-0.02843">
        <ele>1691</ele>
        <time>2017-11-03T12:25:22Z</time>
      </trkpt>
      <trkpt lat="42.83778" lon="-0.02834">
        <ele>1691.5</ele>
        <time>2017-11-03T12:25:37Z</time>
      </trkpt>
      <trkpt lat="42.83778" lon="-0.02833">
        <ele>1691.4</ele>
        <time>2017-11-03T12:25:38Z</time>
      </trkpt>
      <trkpt lat="42.83787" lon="-0.02815">
        <ele>1689.4</ele>
        <time>2017-11-03T12:25:58Z</time>
      </trkpt>
      <trkpt lat="42.83793" lon="-0.02806">
        <ele>1688</ele>
        <time>2017-11-03T12:26:08Z</time>
      </trkpt>
      <trkpt lat="42.83795" lon="-0.02795">
        <ele>1685.9</ele>
        <time>2017-11-03T12:26:24Z</time>
      </trkpt>
      <trkpt lat="42.83798" lon="-0.02785">
        <ele>1683.7</ele>
        <time>2017-11-03T12:26:32Z</time>
      </trkpt>
      <trkpt lat="42.83802" lon="-0.02775">
        <ele>1681.4</ele>
        <time>2017-11-03T12:26:40Z</time>
      </trkpt>
      <trkpt lat="42.83803" lon="-0.02774">
        <ele>1681.3</ele>
        <time>2017-11-03T12:26:41Z</time>
      </trkpt>
      <trkpt lat="42.83817" lon="-0.02764">
        <ele>1681</ele>
        <time>2017-11-03T12:26:59Z</time>
      </trkpt>
      <trkpt lat="42.83823" lon="-0.02758">
        <ele>1680.3</ele>
        <time>2017-11-03T12:27:08Z</time>
      </trkpt>
      <trkpt lat="42.8383" lon="-0.0275">
        <ele>1680.2</ele>
        <time>2017-11-03T12:27:17Z</time>
      </trkpt>
      <trkpt lat="42.83838" lon="-0.02745">
        <ele>1678.9</ele>
        <time>2017-11-03T12:27:37Z</time>
      </trkpt>
      <trkpt lat="42.83845" lon="-0.02738">
        <ele>1676.6</ele>
        <time>2017-11-03T12:27:51Z</time>
      </trkpt>
      <trkpt lat="42.83845" lon="-0.02737">
        <ele>1676.5</ele>
        <time>2017-11-03T12:27:52Z</time>
      </trkpt>
      <trkpt lat="42.83857" lon="-0.02722">
        <ele>1670</ele>
        <time>2017-11-03T12:28:31Z</time>
      </trkpt>
      <trkpt lat="42.83862" lon="-0.02713">
        <ele>1666.4</ele>
        <time>2017-11-03T12:28:46Z</time>
      </trkpt>
      <trkpt lat="42.83863" lon="-0.02701">
        <ele>1663.9</ele>
        <time>2017-11-03T12:29:04Z</time>
      </trkpt>
      <trkpt lat="42.83863" lon="-0.027">
        <ele>1663.5</ele>
        <time>2017-11-03T12:29:05Z</time>
      </trkpt>
      <trkpt lat="42.83874" lon="-0.02682">
        <ele>1655.9</ele>
        <time>2017-11-03T12:29:39Z</time>
      </trkpt>
      <trkpt lat="42.83877" lon="-0.02671">
        <ele>1652.9</ele>
        <time>2017-11-03T12:29:51Z</time>
      </trkpt>
      <trkpt lat="42.83883" lon="-0.02664">
        <ele>1651</ele>
        <time>2017-11-03T12:30:01Z</time>
      </trkpt>
      <trkpt lat="42.83891" lon="-0.02664">
        <ele>1650.2</ele>
        <time>2017-11-03T12:30:12Z</time>
      </trkpt>
      <trkpt lat="42.83892" lon="-0.02664">
        <ele>1650.1</ele>
        <time>2017-11-03T12:30:13Z</time>
      </trkpt>
      <trkpt lat="42.83907" lon="-0.02652">
        <ele>1643.7</ele>
        <time>2017-11-03T12:30:48Z</time>
      </trkpt>
      <trkpt lat="42.83912" lon="-0.02643">
        <ele>1636.8</ele>
        <time>2017-11-03T12:31:16Z</time>
      </trkpt>
      <trkpt lat="42.83912" lon="-0.02642">
        <ele>1636.4</ele>
        <time>2017-11-03T12:31:17Z</time>
      </trkpt>
      <trkpt lat="42.83922" lon="-0.02623">
        <ele>1627.6</ele>
        <time>2017-11-03T12:31:54Z</time>
      </trkpt>
      <trkpt lat="42.8393" lon="-0.02617">
        <ele>1622.5</ele>
        <time>2017-11-03T12:32:16Z</time>
      </trkpt>
      <trkpt lat="42.83937" lon="-0.02611">
        <ele>1618.3</ele>
        <time>2017-11-03T12:32:32Z</time>
      </trkpt>
      <trkpt lat="42.83938" lon="-0.02611">
        <ele>1618.2</ele>
        <time>2017-11-03T12:32:33Z</time>
      </trkpt>
      <trkpt lat="42.8395" lon="-0.02595">
        <ele>1610.3</ele>
        <time>2017-11-03T12:33:08Z</time>
      </trkpt>
      <trkpt lat="42.83953" lon="-0.02584">
        <ele>1604.1</ele>
        <time>2017-11-03T12:33:50Z</time>
      </trkpt>
      <trkpt lat="42.83953" lon="-0.02584">
        <ele>1603.9</ele>
        <time>2017-11-03T12:33:51Z</time>
      </trkpt>
      <trkpt lat="42.8394" lon="-0.02569">
        <ele>1597.5</ele>
        <time>2017-11-03T12:34:24Z</time>
      </trkpt>
      <trkpt lat="42.83933" lon="-0.02562">
        <ele>1595.7</ele>
        <time>2017-11-03T12:34:33Z</time>
      </trkpt>
      <trkpt lat="42.83927" lon="-0.02555">
        <ele>1593.7</ele>
        <time>2017-11-03T12:34:42Z</time>
      </trkpt>
      <trkpt lat="42.83921" lon="-0.02546">
        <ele>1591.5</ele>
        <time>2017-11-03T12:34:53Z</time>
      </trkpt>
      <trkpt lat="42.8392" lon="-0.02546">
        <ele>1591.3</ele>
        <time>2017-11-03T12:34:54Z</time>
      </trkpt>
      <trkpt lat="42.83936" lon="-0.02534">
        <ele>1586</ele>
        <time>2017-11-03T12:35:29Z</time>
      </trkpt>
      <trkpt lat="42.83943" lon="-0.02527">
        <ele>1585.5</ele>
        <time>2017-11-03T12:35:39Z</time>
      </trkpt>
      <trkpt lat="42.83948" lon="-0.02517">
        <ele>1585</ele>
        <time>2017-11-03T12:35:49Z</time>
      </trkpt>
      <trkpt lat="42.83952" lon="-0.02506">
        <ele>1583.7</ele>
        <time>2017-11-03T12:35:59Z</time>
      </trkpt>
      <trkpt lat="42.83952" lon="-0.02505">
        <ele>1583.3</ele>
        <time>2017-11-03T12:36:00Z</time>
      </trkpt>
      <trkpt lat="42.83959" lon="-0.02484">
        <ele>1577.9</ele>
        <time>2017-11-03T12:36:23Z</time>
      </trkpt>
      <trkpt lat="42.8396" lon="-0.02472">
        <ele>1575.5</ele>
        <time>2017-11-03T12:36:33Z</time>
      </trkpt>
      <trkpt lat="42.83961" lon="-0.02461">
        <ele>1575</ele>
        <time>2017-11-03T12:36:43Z</time>
      </trkpt>
      <trkpt lat="42.83954" lon="-0.02454">
        <ele>1567</ele>
        <time>2017-11-03T12:37:12Z</time>
      </trkpt>
      <trkpt lat="42.83954" lon="-0.02453">
        <ele>1567</ele>
        <time>2017-11-03T12:37:13Z</time>
      </trkpt>
      <trkpt lat="42.83943" lon="-0.02444">
        <ele>1558.1</ele>
        <time>2017-11-03T12:38:00Z</time>
      </trkpt>
      <trkpt lat="42.83945" lon="-0.02433">
        <ele>1554.2</ele>
        <time>2017-11-03T12:38:28Z</time>
      </trkpt>
      <trkpt lat="42.83945" lon="-0.02432">
        <ele>1554</ele>
        <time>2017-11-03T12:38:29Z</time>
      </trkpt>
      <trkpt lat="42.8394" lon="-0.02418">
        <ele>1545.6</ele>
        <time>2017-11-03T12:39:50Z</time>
      </trkpt>
      <trkpt lat="42.8394" lon="-0.02416">
        <ele>1545.5</ele>
        <time>2017-11-03T12:39:51Z</time>
      </trkpt>
      <trkpt lat="42.83944" lon="-0.02395">
        <ele>1540.7</ele>
        <time>2017-11-03T12:40:11Z</time>
      </trkpt>
      <trkpt lat="42.83946" lon="-0.02384">
        <ele>1538</ele>
        <time>2017-11-03T12:40:24Z</time>
      </trkpt>
      <trkpt lat="42.8394" lon="-0.02376">
        <ele>1530.3</ele>
        <time>2017-11-03T12:40:57Z</time>
      </trkpt>
      <trkpt lat="42.8394" lon="-0.02375">
        <ele>1530.1</ele>
        <time>2017-11-03T12:40:58Z</time>
      </trkpt>
      <trkpt lat="42.83947" lon="-0.02353">
        <ele>1525.9</ele>
        <time>2017-11-03T12:41:18Z</time>
      </trkpt>
      <trkpt lat="42.8395" lon="-0.02343">
        <ele>1526.1</ele>
        <time>2017-11-03T12:41:26Z</time>
      </trkpt>
      <trkpt lat="42.83955" lon="-0.02333">
        <ele>1524.8</ele>
        <time>2017-11-03T12:41:35Z</time>
      </trkpt>
      <trkpt lat="42.83959" lon="-0.02324">
        <ele>1524.7</ele>
        <time>2017-11-03T12:41:42Z</time>
      </trkpt>
      <trkpt lat="42.83964" lon="-0.02314">
        <ele>1523.3</ele>
        <time>2017-11-03T12:41:50Z</time>
      </trkpt>
      <trkpt lat="42.83968" lon="-0.02305">
        <ele>1523.8</ele>
        <time>2017-11-03T12:41:58Z</time>
      </trkpt>
      <trkpt lat="42.83973" lon="-0.02296">
        <ele>1523.6</ele>
        <time>2017-11-03T12:42:05Z</time>
      </trkpt>
      <trkpt lat="42.83974" lon="-0.02295">
        <ele>1523.7</ele>
        <time>2017-11-03T12:42:06Z</time>
      </trkpt>
      <trkpt lat="42.83986" lon="-0.02281">
        <ele>1522.8</ele>
        <time>2017-11-03T12:42:21Z</time>
      </trkpt>
      <trkpt lat="42.83991" lon="-0.02271">
        <ele>1523.3</ele>
        <time>2017-11-03T12:42:29Z</time>
      </trkpt>
      <trkpt lat="42.83997" lon="-0.02263">
        <ele>1521.6</ele>
        <time>2017-11-03T12:42:38Z</time>
      </trkpt>
      <trkpt lat="42.84003" lon="-0.02254">
        <ele>1520.7</ele>
        <time>2017-11-03T12:42:46Z</time>
      </trkpt>
      <trkpt lat="42.84008" lon="-0.02245">
        <ele>1519.4</ele>
        <time>2017-11-03T12:42:55Z</time>
      </trkpt>
      <trkpt lat="42.84014" lon="-0.02236">
        <ele>1517.3</ele>
        <time>2017-11-03T12:43:02Z</time>
      </trkpt>
      <trkpt lat="42.84019" lon="-0.02228">
        <ele>1516.9</ele>
        <time>2017-11-03T12:43:08Z</time>
      </trkpt>
      <trkpt lat="42.84019" lon="-0.02226">
        <ele>1516.8</ele>
        <time>2017-11-03T12:43:09Z</time>
      </trkpt>
      <trkpt lat="42.84028" lon="-0.02209">
        <ele>1515.5</ele>
        <time>2017-11-03T12:43:21Z</time>
      </trkpt>
      <trkpt lat="42.84033" lon="-0.02198">
        <ele>1515</ele>
        <time>2017-11-03T12:43:29Z</time>
      </trkpt>
      <trkpt lat="42.84038" lon="-0.02189">
        <ele>1514.2</ele>
        <time>2017-11-03T12:43:38Z</time>
      </trkpt>
      <trkpt lat="42.84043" lon="-0.0218">
        <ele>1512</ele>
        <time>2017-11-03T12:43:50Z</time>
      </trkpt>
      <trkpt lat="42.8404" lon="-0.02169">
        <ele>1507.9</ele>
        <time>2017-11-03T12:44:12Z</time>
      </trkpt>
      <trkpt lat="42.84039" lon="-0.02169">
        <ele>1507.8</ele>
        <time>2017-11-03T12:44:13Z</time>
      </trkpt>
      <trkpt lat="42.84055" lon="-0.02157">
        <ele>1501.5</ele>
        <time>2017-11-03T12:44:44Z</time>
      </trkpt>
      <trkpt lat="42.84062" lon="-0.02153">
        <ele>1500.4</ele>
        <time>2017-11-03T12:44:52Z</time>
      </trkpt>
      <trkpt lat="42.84069" lon="-0.02147">
        <ele>1499.1</ele>
        <time>2017-11-03T12:44:59Z</time>
      </trkpt>
      <trkpt lat="42.84076" lon="-0.02141">
        <ele>1497.9</ele>
        <time>2017-11-03T12:45:07Z</time>
      </trkpt>
      <trkpt lat="42.84082" lon="-0.02134">
        <ele>1497.7</ele>
        <time>2017-11-03T12:45:16Z</time>
      </trkpt>
      <trkpt lat="42.84083" lon="-0.02134">
        <ele>1497.6</ele>
        <time>2017-11-03T12:45:17Z</time>
      </trkpt>
      <trkpt lat="42.84096" lon="-0.02122">
        <ele>1496.5</ele>
        <time>2017-11-03T12:45:31Z</time>
      </trkpt>
      <trkpt lat="42.84102" lon="-0.02113">
        <ele>1494.5</ele>
        <time>2017-11-03T12:45:39Z</time>
      </trkpt>
      <trkpt lat="42.84108" lon="-0.02104">
        <ele>1492.8</ele>
        <time>2017-11-03T12:45:46Z</time>
      </trkpt>
      <trkpt lat="42.84114" lon="-0.02097">
        <ele>1492.1</ele>
        <time>2017-11-03T12:45:54Z</time>
      </trkpt>
      <trkpt lat="42.8412" lon="-0.02089">
        <ele>1490.8</ele>
        <time>2017-11-03T12:46:03Z</time>
      </trkpt>
      <trkpt lat="42.84126" lon="-0.0208">
        <ele>1489.3</ele>
        <time>2017-11-03T12:46:13Z</time>
      </trkpt>
      <trkpt lat="42.84133" lon="-0.02072">
        <ele>1487.9</ele>
        <time>2017-11-03T12:46:21Z</time>
      </trkpt>
      <trkpt lat="42.84134" lon="-0.02072">
        <ele>1487.5</ele>
        <time>2017-11-03T12:46:22Z</time>
      </trkpt>
      <trkpt lat="42.84148" lon="-0.02063">
        <ele>1488</ele>
        <time>2017-11-03T12:46:38Z</time>
      </trkpt>
      <trkpt lat="42.84157" lon="-0.0206">
        <ele>1490.1</ele>
        <time>2017-11-03T12:46:48Z</time>
      </trkpt>
      <trkpt lat="42.84165" lon="-0.02055">
        <ele>1491.3</ele>
        <time>2017-11-03T12:46:59Z</time>
      </trkpt>
      <trkpt lat="42.84173" lon="-0.02054">
        <ele>1490.5</ele>
        <time>2017-11-03T12:47:10Z</time>
      </trkpt>
      <trkpt lat="42.84182" lon="-0.02052">
        <ele>1491.8</ele>
        <time>2017-11-03T12:47:20Z</time>
      </trkpt>
      <trkpt lat="42.84191" lon="-0.02047">
        <ele>1490.6</ele>
        <time>2017-11-03T12:47:29Z</time>
      </trkpt>
      <trkpt lat="42.84192" lon="-0.02047">
        <ele>1490.2</ele>
        <time>2017-11-03T12:47:30Z</time>
      </trkpt>
      <trkpt lat="42.84206" lon="-0.02035">
        <ele>1487</ele>
        <time>2017-11-03T12:47:48Z</time>
      </trkpt>
      <trkpt lat="42.84214" lon="-0.02032">
        <ele>1484</ele>
        <time>2017-11-03T12:47:58Z</time>
      </trkpt>
      <trkpt lat="42.84222" lon="-0.02032">
        <ele>1482.5</ele>
        <time>2017-11-03T12:48:06Z</time>
      </trkpt>
      <trkpt lat="42.84221" lon="-0.0202">
        <ele>1477.3</ele>
        <time>2017-11-03T12:48:30Z</time>
      </trkpt>
      <trkpt lat="42.84221" lon="-0.0202">
        <ele>1477.1</ele>
        <time>2017-11-03T12:48:31Z</time>
      </trkpt>
      <trkpt lat="42.84224" lon="-0.02003">
        <ele>1470.4</ele>
        <time>2017-11-03T12:49:10Z</time>
      </trkpt>
      <trkpt lat="42.84233" lon="-0.02002">
        <ele>1467.2</ele>
        <time>2017-11-03T12:49:24Z</time>
      </trkpt>
      <trkpt lat="42.84242" lon="-0.02002">
        <ele>1464.6</ele>
        <time>2017-11-03T12:49:35Z</time>
      </trkpt>
      <trkpt lat="42.84243" lon="-0.02002">
        <ele>1464.6</ele>
        <time>2017-11-03T12:49:36Z</time>
      </trkpt>
      <trkpt lat="42.84258" lon="-0.01997">
        <ele>1461.2</ele>
        <time>2017-11-03T12:49:54Z</time>
      </trkpt>
      <trkpt lat="42.84266" lon="-0.01994">
        <ele>1460.7</ele>
        <time>2017-11-03T12:50:02Z</time>
      </trkpt>
      <trkpt lat="42.84274" lon="-0.01992">
        <ele>1457.9</ele>
        <time>2017-11-03T12:50:10Z</time>
      </trkpt>
      <trkpt lat="42.84283" lon="-0.0199">
        <ele>1456.7</ele>
        <time>2017-11-03T12:50:19Z</time>
      </trkpt>
      <trkpt lat="42.84291" lon="-0.01989">
        <ele>1456.1</ele>
        <time>2017-11-03T12:50:27Z</time>
      </trkpt>
      <trkpt lat="42.843" lon="-0.01986">
        <ele>1455.5</ele>
        <time>2017-11-03T12:50:33Z</time>
      </trkpt>
      <trkpt lat="42.84308" lon="-0.01984">
        <ele>1454.8</ele>
        <time>2017-11-03T12:50:39Z</time>
      </trkpt>
      <trkpt lat="42.84309" lon="-0.01983">
        <ele>1454.7</ele>
        <time>2017-11-03T12:50:40Z</time>
      </trkpt>
      <trkpt lat="42.84324" lon="-0.01978">
        <ele>1451.6</ele>
        <time>2017-11-03T12:50:54Z</time>
      </trkpt>
      <trkpt lat="42.84331" lon="-0.01974">
        <ele>1450</ele>
        <time>2017-11-03T12:51:02Z</time>
      </trkpt>
      <trkpt lat="42.84338" lon="-0.01967">
        <ele>1449.8</ele>
        <time>2017-11-03T12:51:11Z</time>
      </trkpt>
      <trkpt lat="42.84345" lon="-0.0196">
        <ele>1447.5</ele>
        <time>2017-11-03T12:51:20Z</time>
      </trkpt>
      <trkpt lat="42.84352" lon="-0.01954">
        <ele>1444.1</ele>
        <time>2017-11-03T12:51:29Z</time>
      </trkpt>
      <trkpt lat="42.84361" lon="-0.01952">
        <ele>1426.1</ele>
        <time>2017-11-03T12:51:38Z</time>
      </trkpt>
      <trkpt lat="42.84369" lon="-0.01952">
        <ele>1420</ele>
        <time>2017-11-03T12:51:49Z</time>
      </trkpt>
      <trkpt lat="42.8437" lon="-0.01951">
        <ele>1419.6</ele>
        <time>2017-11-03T12:51:50Z</time>
      </trkpt>
      <trkpt lat="42.84385" lon="-0.01956">
        <ele>1417.4</ele>
        <time>2017-11-03T12:52:03Z</time>
      </trkpt>
      <trkpt lat="42.84393" lon="-0.01957">
        <ele>1416.6</ele>
        <time>2017-11-03T12:52:10Z</time>
      </trkpt>
      <trkpt lat="42.84401" lon="-0.01956">
        <ele>1416.5</ele>
        <time>2017-11-03T12:52:16Z</time>
      </trkpt>
      <trkpt lat="42.8441" lon="-0.01957">
        <ele>1415.2</ele>
        <time>2017-11-03T12:52:23Z</time>
      </trkpt>
      <trkpt lat="42.84418" lon="-0.0196">
        <ele>1414</ele>
        <time>2017-11-03T12:52:30Z</time>
      </trkpt>
      <trkpt lat="42.84427" lon="-0.01958">
        <ele>1412.9</ele>
        <time>2017-11-03T12:52:39Z</time>
      </trkpt>
      <trkpt lat="42.84435" lon="-0.01959">
        <ele>1411.9</ele>
        <time>2017-11-03T12:52:47Z</time>
      </trkpt>
      <trkpt lat="42.84443" lon="-0.01956">
        <ele>1408.8</ele>
        <time>2017-11-03T12:52:56Z</time>
      </trkpt>
      <trkpt lat="42.84444" lon="-0.01956">
        <ele>1408.5</ele>
        <time>2017-11-03T12:52:57Z</time>
      </trkpt>
      <trkpt lat="42.8446" lon="-0.01957">
        <ele>1403.8</ele>
        <time>2017-11-03T12:53:12Z</time>
      </trkpt>
      <trkpt lat="42.84468" lon="-0.01958">
        <ele>1401.4</ele>
        <time>2017-11-03T12:53:23Z</time>
      </trkpt>
      <trkpt lat="42.84476" lon="-0.01958">
        <ele>1396.9</ele>
        <time>2017-11-03T12:53:34Z</time>
      </trkpt>
      <trkpt lat="42.84485" lon="-0.01958">
        <ele>1394.9</ele>
        <time>2017-11-03T12:53:44Z</time>
      </trkpt>
      <trkpt lat="42.84494" lon="-0.01956">
        <ele>1393</ele>
        <time>2017-11-03T12:53:54Z</time>
      </trkpt>
      <trkpt lat="42.84503" lon="-0.01954">
        <ele>1390.9</ele>
        <time>2017-11-03T12:54:03Z</time>
      </trkpt>
      <trkpt lat="42.84504" lon="-0.01954">
        <ele>1390.8</ele>
        <time>2017-11-03T12:54:04Z</time>
      </trkpt>
      <trkpt lat="42.8452" lon="-0.01953">
        <ele>1388.3</ele>
        <time>2017-11-03T12:54:19Z</time>
      </trkpt>
      <trkpt lat="42.84528" lon="-0.01953">
        <ele>1388</ele>
        <time>2017-11-03T12:54:26Z</time>
      </trkpt>
      <trkpt lat="42.84537" lon="-0.01953">
        <ele>1386.9</ele>
        <time>2017-11-03T12:54:34Z</time>
      </trkpt>
      <trkpt lat="42.84544" lon="-0.01954">
        <ele>1385.3</ele>
        <time>2017-11-03T12:54:40Z</time>
      </trkpt>
      <trkpt lat="42.84552" lon="-0.01955">
        <ele>1383.9</ele>
        <time>2017-11-03T12:54:47Z</time>
      </trkpt>
      <trkpt lat="42.8456" lon="-0.01956">
        <ele>1383.6</ele>
        <time>2017-11-03T12:54:54Z</time>
      </trkpt>
      <trkpt lat="42.84569" lon="-0.01958">
        <ele>1381.8</ele>
        <time>2017-11-03T12:55:02Z</time>
      </trkpt>
      <trkpt lat="42.84577" lon="-0.01956">
        <ele>1380</ele>
        <time>2017-11-03T12:55:10Z</time>
      </trkpt>
      <trkpt lat="42.84578" lon="-0.01956">
        <ele>1379.9</ele>
        <time>2017-11-03T12:55:11Z</time>
      </trkpt>
      <trkpt lat="42.84594" lon="-0.01953">
        <ele>1374.8</ele>
        <time>2017-11-03T12:55:29Z</time>
      </trkpt>
      <trkpt lat="42.84601" lon="-0.01947">
        <ele>1373.6</ele>
        <time>2017-11-03T12:55:37Z</time>
      </trkpt>
      <trkpt lat="42.84609" lon="-0.01942">
        <ele>1371.5</ele>
        <time>2017-11-03T12:55:46Z</time>
      </trkpt>
      <trkpt lat="42.84616" lon="-0.01938">
        <ele>1370.2</ele>
        <time>2017-11-03T12:55:54Z</time>
      </trkpt>
      <trkpt lat="42.84624" lon="-0.01934">
        <ele>1368.4</ele>
        <time>2017-11-03T12:56:04Z</time>
      </trkpt>
      <trkpt lat="42.84633" lon="-0.0193">
        <ele>1366.5</ele>
        <time>2017-11-03T12:56:13Z</time>
      </trkpt>
      <trkpt lat="42.84634" lon="-0.0193">
        <ele>1366.3</ele>
        <time>2017-11-03T12:56:14Z</time>
      </trkpt>
      <trkpt lat="42.84648" lon="-0.01919">
        <ele>1362.1</ele>
        <time>2017-11-03T12:56:32Z</time>
      </trkpt>
      <trkpt lat="42.84655" lon="-0.01913">
        <ele>1361</ele>
        <time>2017-11-03T12:56:40Z</time>
      </trkpt>
      <trkpt lat="42.84662" lon="-0.01909">
        <ele>1358.9</ele>
        <time>2017-11-03T12:56:49Z</time>
      </trkpt>
      <trkpt lat="42.8467" lon="-0.01903">
        <ele>1357.4</ele>
        <time>2017-11-03T12:57:02Z</time>
      </trkpt>
      <trkpt lat="42.84678" lon="-0.01898">
        <ele>1356.6</ele>
        <time>2017-11-03T12:57:13Z</time>
      </trkpt>
      <trkpt lat="42.84686" lon="-0.01894">
        <ele>1353.7</ele>
        <time>2017-11-03T12:57:25Z</time>
      </trkpt>
      <trkpt lat="42.84687" lon="-0.01894">
        <ele>1353.4</ele>
        <time>2017-11-03T12:57:26Z</time>
      </trkpt>
      <trkpt lat="42.84703" lon="-0.01891">
        <ele>1350.2</ele>
        <time>2017-11-03T12:57:45Z</time>
      </trkpt>
      <trkpt lat="42.84711" lon="-0.01886">
        <ele>1348.2</ele>
        <time>2017-11-03T12:57:55Z</time>
      </trkpt>
      <trkpt lat="42.8472" lon="-0.01884">
        <ele>1346</ele>
        <time>2017-11-03T12:58:04Z</time>
      </trkpt>
      <trkpt lat="42.84728" lon="-0.01883">
        <ele>1344.8</ele>
        <time>2017-11-03T12:58:12Z</time>
      </trkpt>
      <trkpt lat="42.84736" lon="-0.01885">
        <ele>1344.3</ele>
        <time>2017-11-03T12:58:19Z</time>
      </trkpt>
      <trkpt lat="42.84744" lon="-0.01886">
        <ele>1343.8</ele>
        <time>2017-11-03T12:58:27Z</time>
      </trkpt>
      <trkpt lat="42.84746" lon="-0.01886">
        <ele>1343.7</ele>
        <time>2017-11-03T12:58:28Z</time>
      </trkpt>
      <trkpt lat="42.84761" lon="-0.0189">
        <ele>1344.2</ele>
        <time>2017-11-03T12:58:40Z</time>
      </trkpt>
      <trkpt lat="42.8477" lon="-0.01891">
        <ele>1343.1</ele>
        <time>2017-11-03T12:58:47Z</time>
      </trkpt>
      <trkpt lat="42.84778" lon="-0.01891">
        <ele>1340.9</ele>
        <time>2017-11-03T12:58:54Z</time>
      </trkpt>
      <trkpt lat="42.84787" lon="-0.01888">
        <ele>1340.2</ele>
        <time>2017-11-03T12:59:03Z</time>
      </trkpt>
      <trkpt lat="42.84795" lon="-0.01886">
        <ele>1339.1</ele>
        <time>2017-11-03T12:59:10Z</time>
      </trkpt>
      <trkpt lat="42.84803" lon="-0.01884">
        <ele>1337.3</ele>
        <time>2017-11-03T12:59:17Z</time>
      </trkpt>
      <trkpt lat="42.84811" lon="-0.01881">
        <ele>1336.3</ele>
        <time>2017-11-03T12:59:24Z</time>
      </trkpt>
      <trkpt lat="42.84819" lon="-0.01876">
        <ele>1335.3</ele>
        <time>2017-11-03T12:59:30Z</time>
      </trkpt>
      <trkpt lat="42.8482" lon="-0.01875">
        <ele>1335.1</ele>
        <time>2017-11-03T12:59:31Z</time>
      </trkpt>
      <trkpt lat="42.84832" lon="-0.01862">
        <ele>1334.7</ele>
        <time>2017-11-03T12:59:43Z</time>
      </trkpt>
      <trkpt lat="42.84839" lon="-0.01856">
        <ele>1336.6</ele>
        <time>2017-11-03T12:59:50Z</time>
      </trkpt>
      <trkpt lat="42.84847" lon="-0.01852">
        <ele>1336.2</ele>
        <time>2017-11-03T12:59:57Z</time>
      </trkpt>
      <trkpt lat="42.84855" lon="-0.01849">
        <ele>1335.7</ele>
        <time>2017-11-03T13:00:04Z</time>
      </trkpt>
      <trkpt lat="42.84864" lon="-0.01848">
        <ele>1335.8</ele>
        <time>2017-11-03T13:00:14Z</time>
      </trkpt>
      <trkpt lat="42.84872" lon="-0.01849">
        <ele>1332.1</ele>
        <time>2017-11-03T13:00:25Z</time>
      </trkpt>
      <trkpt lat="42.8488" lon="-0.01848">
        <ele>1331.4</ele>
        <time>2017-11-03T13:00:34Z</time>
      </trkpt>
      <trkpt lat="42.84881" lon="-0.01848">
        <ele>1330.9</ele>
        <time>2017-11-03T13:00:35Z</time>
      </trkpt>
      <trkpt lat="42.8489" lon="-0.01834">
        <ele>1324.1</ele>
        <time>2017-11-03T13:01:05Z</time>
      </trkpt>
      <trkpt lat="42.84897" lon="-0.01827">
        <ele>1321.5</ele>
        <time>2017-11-03T13:01:17Z</time>
      </trkpt>
      <trkpt lat="42.84905" lon="-0.01824">
        <ele>1318.5</ele>
        <time>2017-11-03T13:01:30Z</time>
      </trkpt>
      <trkpt lat="42.84914" lon="-0.0182">
        <ele>1317.1</ele>
        <time>2017-11-03T13:01:41Z</time>
      </trkpt>
      <trkpt lat="42.84914" lon="-0.0182">
        <ele>1317.1</ele>
        <time>2017-11-03T13:01:42Z</time>
      </trkpt>
      <trkpt lat="42.8493" lon="-0.01822">
        <ele>1314.4</ele>
        <time>2017-11-03T13:01:55Z</time>
      </trkpt>
      <trkpt lat="42.84938" lon="-0.01823">
        <ele>1314.7</ele>
        <time>2017-11-03T13:02:04Z</time>
      </trkpt>
      <trkpt lat="42.84947" lon="-0.01825">
        <ele>1314</ele>
        <time>2017-11-03T13:02:12Z</time>
      </trkpt>
      <trkpt lat="42.84955" lon="-0.01825">
        <ele>1313.9</ele>
        <time>2017-11-03T13:02:19Z</time>
      </trkpt>
      <trkpt lat="42.84964" lon="-0.01826">
        <ele>1313</ele>
        <time>2017-11-03T13:02:28Z</time>
      </trkpt>
      <trkpt lat="42.84973" lon="-0.01827">
        <ele>1312.6</ele>
        <time>2017-11-03T13:02:40Z</time>
      </trkpt>
      <trkpt lat="42.84981" lon="-0.01832">
        <ele>1312.1</ele>
        <time>2017-11-03T13:03:01Z</time>
      </trkpt>
      <trkpt lat="42.84981" lon="-0.01832">
        <ele>1312.3</ele>
        <time>2017-11-03T13:03:02Z</time>
      </trkpt>
      <trkpt lat="42.84986" lon="-0.0183">
        <ele>1312</ele>
        <time>2017-11-03T13:06:56Z</time>
      </trkpt>
      <trkpt lat="42.84986" lon="-0.01829">
        <ele>1311.9</ele>
        <time>2017-11-03T13:06:57Z</time>
      </trkpt>
      <trkpt lat="42.84986" lon="-0.01842">
        <ele>1313.2</ele>
        <time>2017-11-03T13:08:07Z</time>
      </trkpt>
      <trkpt lat="42.84986" lon="-0.01826">
        <ele>1312.6</ele>
        <time>2017-11-03T13:10:57Z</time>
      </trkpt>
      <trkpt lat="42.84987" lon="-0.01826">
        <ele>1312.5</ele>
        <time>2017-11-03T13:10:58Z</time>
      </trkpt>
      <trkpt lat="42.85003" lon="-0.01822">
        <ele>1307.2</ele>
        <time>2017-11-03T13:11:17Z</time>
      </trkpt>
      <trkpt lat="42.85011" lon="-0.01818">
        <ele>1305.6</ele>
        <time>2017-11-03T13:11:24Z</time>
      </trkpt>
      <trkpt lat="42.8502" lon="-0.01814">
        <ele>1303.7</ele>
        <time>2017-11-03T13:11:31Z</time>
      </trkpt>
      <trkpt lat="42.85026" lon="-0.01808">
        <ele>1302.6</ele>
        <time>2017-11-03T13:11:38Z</time>
      </trkpt>
      <trkpt lat="42.85035" lon="-0.01807">
        <ele>1301.4</ele>
        <time>2017-11-03T13:11:46Z</time>
      </trkpt>
      <trkpt lat="42.85043" lon="-0.01803">
        <ele>1300.3</ele>
        <time>2017-11-03T13:11:57Z</time>
      </trkpt>
      <trkpt lat="42.85052" lon="-0.01799">
        <ele>1299.4</ele>
        <time>2017-11-03T13:12:12Z</time>
      </trkpt>
      <trkpt lat="42.85052" lon="-0.01799">
        <ele>1299.2</ele>
        <time>2017-11-03T13:12:13Z</time>
      </trkpt>
      <trkpt lat="42.85067" lon="-0.01797">
        <ele>1293.9</ele>
        <time>2017-11-03T13:12:28Z</time>
      </trkpt>
      <trkpt lat="42.85075" lon="-0.01794">
        <ele>1292.1</ele>
        <time>2017-11-03T13:12:35Z</time>
      </trkpt>
      <trkpt lat="42.85083" lon="-0.01794">
        <ele>1290.4</ele>
        <time>2017-11-03T13:12:41Z</time>
      </trkpt>
      <trkpt lat="42.85091" lon="-0.01794">
        <ele>1289</ele>
        <time>2017-11-03T13:12:48Z</time>
      </trkpt>
      <trkpt lat="42.851" lon="-0.01795">
        <ele>1287.2</ele>
        <time>2017-11-03T13:12:55Z</time>
      </trkpt>
      <trkpt lat="42.85109" lon="-0.01795">
        <ele>1285.9</ele>
        <time>2017-11-03T13:13:02Z</time>
      </trkpt>
      <trkpt lat="42.85118" lon="-0.01794">
        <ele>1283.1</ele>
        <time>2017-11-03T13:13:09Z</time>
      </trkpt>
      <trkpt lat="42.85126" lon="-0.01794">
        <ele>1281.7</ele>
        <time>2017-11-03T13:13:16Z</time>
      </trkpt>
      <trkpt lat="42.85127" lon="-0.01794">
        <ele>1281.5</ele>
        <time>2017-11-03T13:13:17Z</time>
      </trkpt>
      <trkpt lat="42.85143" lon="-0.01794">
        <ele>1278.4</ele>
        <time>2017-11-03T13:13:31Z</time>
      </trkpt>
      <trkpt lat="42.85151" lon="-0.01798">
        <ele>1277.1</ele>
        <time>2017-11-03T13:13:37Z</time>
      </trkpt>
      <trkpt lat="42.85158" lon="-0.01801">
        <ele>1275.1</ele>
        <time>2017-11-03T13:13:43Z</time>
      </trkpt>
      <trkpt lat="42.85166" lon="-0.01805">
        <ele>1274.5</ele>
        <time>2017-11-03T13:13:49Z</time>
      </trkpt>
      <trkpt lat="42.85175" lon="-0.01807">
        <ele>1272.1</ele>
        <time>2017-11-03T13:13:57Z</time>
      </trkpt>
      <trkpt lat="42.85183" lon="-0.0181">
        <ele>1270.5</ele>
        <time>2017-11-03T13:14:05Z</time>
      </trkpt>
      <trkpt lat="42.85191" lon="-0.01812">
        <ele>1269.5</ele>
        <time>2017-11-03T13:14:11Z</time>
      </trkpt>
      <trkpt lat="42.85199" lon="-0.01813">
        <ele>1267.2</ele>
        <time>2017-11-03T13:14:17Z</time>
      </trkpt>
      <trkpt lat="42.85201" lon="-0.01814">
        <ele>1267</ele>
        <time>2017-11-03T13:14:18Z</time>
      </trkpt>
      <trkpt lat="42.85215" lon="-0.01814">
        <ele>1264.5</ele>
        <time>2017-11-03T13:14:29Z</time>
      </trkpt>
      <trkpt lat="42.85223" lon="-0.01815">
        <ele>1262.8</ele>
        <time>2017-11-03T13:14:35Z</time>
      </trkpt>
      <trkpt lat="42.85232" lon="-0.01816">
        <ele>1262.1</ele>
        <time>2017-11-03T13:14:41Z</time>
      </trkpt>
      <trkpt lat="42.8524" lon="-0.01818">
        <ele>1260.5</ele>
        <time>2017-11-03T13:14:46Z</time>
      </trkpt>
      <trkpt lat="42.85247" lon="-0.01818">
        <ele>1258.1</ele>
        <time>2017-11-03T13:14:52Z</time>
      </trkpt>
      <trkpt lat="42.85255" lon="-0.01818">
        <ele>1254.8</ele>
        <time>2017-11-03T13:15:00Z</time>
      </trkpt>
      <trkpt lat="42.85263" lon="-0.0182">
        <ele>1252.6</ele>
        <time>2017-11-03T13:15:06Z</time>
      </trkpt>
      <trkpt lat="42.85272" lon="-0.0182">
        <ele>1249.7</ele>
        <time>2017-11-03T13:15:14Z</time>
      </trkpt>
      <trkpt lat="42.85279" lon="-0.01821">
        <ele>1248.3</ele>
        <time>2017-11-03T13:15:20Z</time>
      </trkpt>
      <trkpt lat="42.85281" lon="-0.01821">
        <ele>1248.2</ele>
        <time>2017-11-03T13:15:21Z</time>
      </trkpt>
      <trkpt lat="42.85296" lon="-0.01823">
        <ele>1246.5</ele>
        <time>2017-11-03T13:15:32Z</time>
      </trkpt>
      <trkpt lat="42.85304" lon="-0.01823">
        <ele>1244.7</ele>
        <time>2017-11-03T13:15:39Z</time>
      </trkpt>
      <trkpt lat="42.85312" lon="-0.01825">
        <ele>1243.8</ele>
        <time>2017-11-03T13:15:45Z</time>
      </trkpt>
      <trkpt lat="42.8532" lon="-0.01828">
        <ele>1242.6</ele>
        <time>2017-11-03T13:15:52Z</time>
      </trkpt>
      <trkpt lat="42.85329" lon="-0.01831">
        <ele>1241.2</ele>
        <time>2017-11-03T13:16:00Z</time>
      </trkpt>
      <trkpt lat="42.85337" lon="-0.01832">
        <ele>1237.6</ele>
        <time>2017-11-03T13:16:07Z</time>
      </trkpt>
      <trkpt lat="42.85345" lon="-0.01835">
        <ele>1237.1</ele>
        <time>2017-11-03T13:16:13Z</time>
      </trkpt>
      <trkpt lat="42.85353" lon="-0.01837">
        <ele>1235.8</ele>
        <time>2017-11-03T13:16:20Z</time>
      </trkpt>
      <trkpt lat="42.85361" lon="-0.01839">
        <ele>1235.5</ele>
        <time>2017-11-03T13:16:28Z</time>
      </trkpt>
      <trkpt lat="42.85362" lon="-0.01839">
        <ele>1235.4</ele>
        <time>2017-11-03T13:16:29Z</time>
      </trkpt>
      <trkpt lat="42.85377" lon="-0.01838">
        <ele>1235.4</ele>
        <time>2017-11-03T13:16:43Z</time>
      </trkpt>
      <trkpt lat="42.85385" lon="-0.01835">
        <ele>1234.9</ele>
        <time>2017-11-03T13:16:49Z</time>
      </trkpt>
      <trkpt lat="42.85393" lon="-0.01829">
        <ele>1233.5</ele>
        <time>2017-11-03T13:16:54Z</time>
      </trkpt>
      <trkpt lat="42.85401" lon="-0.01824">
        <ele>1233.5</ele>
        <time>2017-11-03T13:17:00Z</time>
      </trkpt>
      <trkpt lat="42.85408" lon="-0.01818">
        <ele>1233.3</ele>
        <time>2017-11-03T13:17:06Z</time>
      </trkpt>
      <trkpt lat="42.85415" lon="-0.01811">
        <ele>1232.2</ele>
        <time>2017-11-03T13:17:13Z</time>
      </trkpt>
      <trkpt lat="42.85421" lon="-0.01802">
        <ele>1231.3</ele>
        <time>2017-11-03T13:17:21Z</time>
      </trkpt>
      <trkpt lat="42.85426" lon="-0.01792">
        <ele>1228.3</ele>
        <time>2017-11-03T13:17:35Z</time>
      </trkpt>
      <trkpt lat="42.85426" lon="-0.01792">
        <ele>1228.3</ele>
        <time>2017-11-03T13:17:36Z</time>
      </trkpt>
      <trkpt lat="42.85442" lon="-0.01799">
        <ele>1223.9</ele>
        <time>2017-11-03T13:18:23Z</time>
      </trkpt>
      <trkpt lat="42.8545" lon="-0.01803">
        <ele>1222.4</ele>
        <time>2017-11-03T13:18:32Z</time>
      </trkpt>
      <trkpt lat="42.85457" lon="-0.01809">
        <ele>1219.9</ele>
        <time>2017-11-03T13:18:41Z</time>
      </trkpt>
      <trkpt lat="42.85458" lon="-0.0181">
        <ele>1219.8</ele>
        <time>2017-11-03T13:18:42Z</time>
      </trkpt>
      <trkpt lat="42.85469" lon="-0.01826">
        <ele>1214.7</ele>
        <time>2017-11-03T13:18:57Z</time>
      </trkpt>
      <trkpt lat="42.85474" lon="-0.01835">
        <ele>1212.8</ele>
        <time>2017-11-03T13:19:06Z</time>
      </trkpt>
      <trkpt lat="42.8548" lon="-0.01843">
        <ele>1211.5</ele>
        <time>2017-11-03T13:19:12Z</time>
      </trkpt>
      <trkpt lat="42.85486" lon="-0.01851">
        <ele>1209.3</ele>
        <time>2017-11-03T13:19:19Z</time>
      </trkpt>
      <trkpt lat="42.85492" lon="-0.01857">
        <ele>1206.6</ele>
        <time>2017-11-03T13:19:26Z</time>
      </trkpt>
      <trkpt lat="42.855" lon="-0.01863">
        <ele>1204</ele>
        <time>2017-11-03T13:19:35Z</time>
      </trkpt>
      <trkpt lat="42.85508" lon="-0.01868">
        <ele>1201.4</ele>
        <time>2017-11-03T13:19:44Z</time>
      </trkpt>
      <trkpt lat="42.85509" lon="-0.01869">
        <ele>1200.9</ele>
        <time>2017-11-03T13:19:45Z</time>
      </trkpt>
      <trkpt lat="42.85524" lon="-0.01877">
        <ele>1197.1</ele>
        <time>2017-11-03T13:20:00Z</time>
      </trkpt>
      <trkpt lat="42.85531" lon="-0.01883">
        <ele>1194.9</ele>
        <time>2017-11-03T13:20:08Z</time>
      </trkpt>
      <trkpt lat="42.85538" lon="-0.01889">
        <ele>1191.7</ele>
        <time>2017-11-03T13:20:16Z</time>
      </trkpt>
      <trkpt lat="42.85544" lon="-0.01896">
        <ele>1190.8</ele>
        <time>2017-11-03T13:20:27Z</time>
      </trkpt>
      <trkpt lat="42.8555" lon="-0.01904">
        <ele>1191.1</ele>
        <time>2017-11-03T13:20:37Z</time>
      </trkpt>
      <trkpt lat="42.85556" lon="-0.0191">
        <ele>1191.4</ele>
        <time>2017-11-03T13:20:45Z</time>
      </trkpt>
      <trkpt lat="42.85557" lon="-0.01912">
        <ele>1191.6</ele>
        <time>2017-11-03T13:20:46Z</time>
      </trkpt>
      <trkpt lat="42.85569" lon="-0.01926">
        <ele>1192.6</ele>
        <time>2017-11-03T13:21:00Z</time>
      </trkpt>
      <trkpt lat="42.85576" lon="-0.01933">
        <ele>1191.7</ele>
        <time>2017-11-03T13:21:05Z</time>
      </trkpt>
      <trkpt lat="42.85582" lon="-0.01939">
        <ele>1191.4</ele>
        <time>2017-11-03T13:21:10Z</time>
      </trkpt>
      <trkpt lat="42.85588" lon="-0.01945">
        <ele>1191.1</ele>
        <time>2017-11-03T13:21:14Z</time>
      </trkpt>
      <trkpt lat="42.85594" lon="-0.01952">
        <ele>1190.6</ele>
        <time>2017-11-03T13:21:19Z</time>
      </trkpt>
      <trkpt lat="42.856" lon="-0.01959">
        <ele>1190.7</ele>
        <time>2017-11-03T13:21:25Z</time>
      </trkpt>
      <trkpt lat="42.85606" lon="-0.01966">
        <ele>1190.4</ele>
        <time>2017-11-03T13:21:31Z</time>
      </trkpt>
      <trkpt lat="42.85612" lon="-0.01973">
        <ele>1189.9</ele>
        <time>2017-11-03T13:21:37Z</time>
      </trkpt>
      <trkpt lat="42.85619" lon="-0.01981">
        <ele>1189.3</ele>
        <time>2017-11-03T13:21:44Z</time>
      </trkpt>
      <trkpt lat="42.85625" lon="-0.01988">
        <ele>1189.1</ele>
        <time>2017-11-03T13:21:50Z</time>
      </trkpt>
      <trkpt lat="42.85626" lon="-0.01989">
        <ele>1189.4</ele>
        <time>2017-11-03T13:21:51Z</time>
      </trkpt>
      <trkpt lat="42.85642" lon="-0.01994">
        <ele>1187.4</ele>
        <time>2017-11-03T13:22:07Z</time>
      </trkpt>
      <trkpt lat="42.8565" lon="-0.01998">
        <ele>1184.6</ele>
        <time>2017-11-03T13:22:17Z</time>
      </trkpt>
      <trkpt lat="42.85657" lon="-0.02003">
        <ele>1182.6</ele>
        <time>2017-11-03T13:22:27Z</time>
      </trkpt>
      <trkpt lat="42.85665" lon="-0.02007">
        <ele>1182.2</ele>
        <time>2017-11-03T13:22:37Z</time>
      </trkpt>
      <trkpt lat="42.85673" lon="-0.0201">
        <ele>1180.6</ele>
        <time>2017-11-03T13:22:48Z</time>
      </trkpt>
      <trkpt lat="42.85681" lon="-0.02014">
        <ele>1179.2</ele>
        <time>2017-11-03T13:22:59Z</time>
      </trkpt>
      <trkpt lat="42.85681" lon="-0.02015">
        <ele>1178.9</ele>
        <time>2017-11-03T13:23:00Z</time>
      </trkpt>
      <trkpt lat="42.85694" lon="-0.02027">
        <ele>1177.8</ele>
        <time>2017-11-03T13:23:17Z</time>
      </trkpt>
      <trkpt lat="42.85703" lon="-0.0203">
        <ele>1177.2</ele>
        <time>2017-11-03T13:23:25Z</time>
      </trkpt>
      <trkpt lat="42.8571" lon="-0.02025">
        <ele>1177.4</ele>
        <time>2017-11-03T13:23:35Z</time>
      </trkpt>
      <trkpt lat="42.85716" lon="-0.02018">
        <ele>1176.2</ele>
        <time>2017-11-03T13:23:46Z</time>
      </trkpt>
      <trkpt lat="42.85717" lon="-0.02006">
        <ele>1171.8</ele>
        <time>2017-11-03T13:24:01Z</time>
      </trkpt>
      <trkpt lat="42.85717" lon="-0.02005">
        <ele>1171.5</ele>
        <time>2017-11-03T13:24:02Z</time>
      </trkpt>
      <trkpt lat="42.85719" lon="-0.01983">
        <ele>1167.8</ele>
        <time>2017-11-03T13:24:24Z</time>
      </trkpt>
      <trkpt lat="42.85723" lon="-0.01972">
        <ele>1163.9</ele>
        <time>2017-11-03T13:24:35Z</time>
      </trkpt>
      <trkpt lat="42.85727" lon="-0.01961">
        <ele>1162</ele>
        <time>2017-11-03T13:24:45Z</time>
      </trkpt>
      <trkpt lat="42.85729" lon="-0.0195">
        <ele>1158.7</ele>
        <time>2017-11-03T13:24:59Z</time>
      </trkpt>
      <trkpt lat="42.85733" lon="-0.01939">
        <ele>1156.2</ele>
        <time>2017-11-03T13:25:12Z</time>
      </trkpt>
      <trkpt lat="42.85733" lon="-0.01939">
        <ele>1155.8</ele>
        <time>2017-11-03T13:25:13Z</time>
      </trkpt>
      <trkpt lat="42.85735" lon="-0.01915">
        <ele>1148.8</ele>
        <time>2017-11-03T13:25:45Z</time>
      </trkpt>
      <trkpt lat="42.85737" lon="-0.01904">
        <ele>1147.2</ele>
        <time>2017-11-03T13:25:57Z</time>
      </trkpt>
      <trkpt lat="42.85739" lon="-0.01893">
        <ele>1144.4</ele>
        <time>2017-11-03T13:26:09Z</time>
      </trkpt>
      <trkpt lat="42.85742" lon="-0.01882">
        <ele>1139.6</ele>
        <time>2017-11-03T13:26:28Z</time>
      </trkpt>
      <trkpt lat="42.85743" lon="-0.01881">
        <ele>1139.5</ele>
        <time>2017-11-03T13:26:29Z</time>
      </trkpt>
      <trkpt lat="42.85752" lon="-0.01862">
        <ele>1133.9</ele>
        <time>2017-11-03T13:26:57Z</time>
      </trkpt>
      <trkpt lat="42.85752" lon="-0.0185">
        <ele>1130.9</ele>
        <time>2017-11-03T13:27:09Z</time>
      </trkpt>
      <trkpt lat="42.85753" lon="-0.01839">
        <ele>1128.2</ele>
        <time>2017-11-03T13:27:23Z</time>
      </trkpt>
      <trkpt lat="42.85755" lon="-0.01827">
        <ele>1125.5</ele>
        <time>2017-11-03T13:27:34Z</time>
      </trkpt>
      <trkpt lat="42.85755" lon="-0.01826">
        <ele>1125.3</ele>
        <time>2017-11-03T13:27:35Z</time>
      </trkpt>
      <trkpt lat="42.85762" lon="-0.01805">
        <ele>1122</ele>
        <time>2017-11-03T13:27:53Z</time>
      </trkpt>
      <trkpt lat="42.85766" lon="-0.01793">
        <ele>1119</ele>
        <time>2017-11-03T13:28:05Z</time>
      </trkpt>
      <trkpt lat="42.85766" lon="-0.01782">
        <ele>1117.2</ele>
        <time>2017-11-03T13:28:14Z</time>
      </trkpt>
      <trkpt lat="42.85771" lon="-0.01773">
        <ele>1115.5</ele>
        <time>2017-11-03T13:28:23Z</time>
      </trkpt>
      <trkpt lat="42.85775" lon="-0.01762">
        <ele>1111.6</ele>
        <time>2017-11-03T13:28:35Z</time>
      </trkpt>
      <trkpt lat="42.85782" lon="-0.01755">
        <ele>1110</ele>
        <time>2017-11-03T13:28:46Z</time>
      </trkpt>
      <trkpt lat="42.85782" lon="-0.01754">
        <ele>1109.4</ele>
        <time>2017-11-03T13:28:47Z</time>
      </trkpt>
      <trkpt lat="42.85796" lon="-0.01742">
        <ele>1104</ele>
        <time>2017-11-03T13:29:05Z</time>
      </trkpt>
      <trkpt lat="42.85803" lon="-0.01736">
        <ele>1102.5</ele>
        <time>2017-11-03T13:29:13Z</time>
      </trkpt>
      <trkpt lat="42.85811" lon="-0.01732">
        <ele>1099.5</ele>
        <time>2017-11-03T13:29:22Z</time>
      </trkpt>
      <trkpt lat="42.85819" lon="-0.01726">
        <ele>1097.5</ele>
        <time>2017-11-03T13:29:29Z</time>
      </trkpt>
      <trkpt lat="42.85827" lon="-0.01723">
        <ele>1095.5</ele>
        <time>2017-11-03T13:29:39Z</time>
      </trkpt>
      <trkpt lat="42.85835" lon="-0.0172">
        <ele>1093.5</ele>
        <time>2017-11-03T13:29:47Z</time>
      </trkpt>
      <trkpt lat="42.85836" lon="-0.0172">
        <ele>1093.3</ele>
        <time>2017-11-03T13:29:48Z</time>
      </trkpt>
      <trkpt lat="42.85852" lon="-0.0172">
        <ele>1087.1</ele>
        <time>2017-11-03T13:30:04Z</time>
      </trkpt>
      <trkpt lat="42.8586" lon="-0.0172">
        <ele>1083.5</ele>
        <time>2017-11-03T13:30:11Z</time>
      </trkpt>
      <trkpt lat="42.85869" lon="-0.0172">
        <ele>1080.9</ele>
        <time>2017-11-03T13:30:18Z</time>
      </trkpt>
      <trkpt lat="42.85877" lon="-0.01722">
        <ele>1078.2</ele>
        <time>2017-11-03T13:30:25Z</time>
      </trkpt>
      <trkpt lat="42.85885" lon="-0.01722">
        <ele>1076.5</ele>
        <time>2017-11-03T13:30:31Z</time>
      </trkpt>
      <trkpt lat="42.85893" lon="-0.01723">
        <ele>1074.5</ele>
        <time>2017-11-03T13:30:42Z</time>
      </trkpt>
      <trkpt lat="42.85902" lon="-0.01723">
        <ele>1073.3</ele>
        <time>2017-11-03T13:30:51Z</time>
      </trkpt>
      <trkpt lat="42.85903" lon="-0.01724">
        <ele>1073</ele>
        <time>2017-11-03T13:30:52Z</time>
      </trkpt>
      <trkpt lat="42.85917" lon="-0.01727">
        <ele>1070.7</ele>
        <time>2017-11-03T13:31:05Z</time>
      </trkpt>
      <trkpt lat="42.85925" lon="-0.01727">
        <ele>1069.6</ele>
        <time>2017-11-03T13:31:11Z</time>
      </trkpt>
      <trkpt lat="42.85934" lon="-0.01728">
        <ele>1068.2</ele>
        <time>2017-11-03T13:31:20Z</time>
      </trkpt>
      <trkpt lat="42.85943" lon="-0.01731">
        <ele>1066.7</ele>
        <time>2017-11-03T13:31:28Z</time>
      </trkpt>
      <trkpt lat="42.85951" lon="-0.01732">
        <ele>1064.6</ele>
        <time>2017-11-03T13:31:36Z</time>
      </trkpt>
      <trkpt lat="42.8596" lon="-0.01734">
        <ele>1062.6</ele>
        <time>2017-11-03T13:31:44Z</time>
      </trkpt>
      <trkpt lat="42.85969" lon="-0.01733">
        <ele>1062.4</ele>
        <time>2017-11-03T13:31:51Z</time>
      </trkpt>
      <trkpt lat="42.85977" lon="-0.01731">
        <ele>1061.2</ele>
        <time>2017-11-03T13:31:57Z</time>
      </trkpt>
      <trkpt lat="42.85978" lon="-0.01731">
        <ele>1060.8</ele>
        <time>2017-11-03T13:31:58Z</time>
      </trkpt>
      <trkpt lat="42.85993" lon="-0.01729">
        <ele>1058.4</ele>
        <time>2017-11-03T13:32:10Z</time>
      </trkpt>
      <trkpt lat="42.86001" lon="-0.01727">
        <ele>1056.4</ele>
        <time>2017-11-03T13:32:16Z</time>
      </trkpt>
      <trkpt lat="42.86009" lon="-0.01724">
        <ele>1055.3</ele>
        <time>2017-11-03T13:32:21Z</time>
      </trkpt>
      <trkpt lat="42.86017" lon="-0.0172">
        <ele>1056.2</ele>
        <time>2017-11-03T13:32:26Z</time>
      </trkpt>
      <trkpt lat="42.86025" lon="-0.01719">
        <ele>1055.1</ele>
        <time>2017-11-03T13:32:34Z</time>
      </trkpt>
      <trkpt lat="42.86018" lon="-0.01711">
        <ele>1053.7</ele>
        <time>2017-11-03T13:32:51Z</time>
      </trkpt>
      <trkpt lat="42.8601" lon="-0.01707">
        <ele>1052.6</ele>
        <time>2017-11-03T13:33:00Z</time>
      </trkpt>
      <trkpt lat="42.86009" lon="-0.01707">
        <ele>1052.5</ele>
        <time>2017-11-03T13:33:01Z</time>
      </trkpt>
      <trkpt lat="42.85995" lon="-0.01697">
        <ele>1051.9</ele>
        <time>2017-11-03T13:33:18Z</time>
      </trkpt>
      <trkpt lat="42.85987" lon="-0.01693">
        <ele>1052.5</ele>
        <time>2017-11-03T13:33:25Z</time>
      </trkpt>
      <trkpt lat="42.8598" lon="-0.01686">
        <ele>1051.7</ele>
        <time>2017-11-03T13:33:34Z</time>
      </trkpt>
      <trkpt lat="42.85975" lon="-0.01678">
        <ele>1051.5</ele>
        <time>2017-11-03T13:33:41Z</time>
      </trkpt>
      <trkpt lat="42.85969" lon="-0.0167">
        <ele>1051.2</ele>
        <time>2017-11-03T13:33:48Z</time>
      </trkpt>
      <trkpt lat="42.85964" lon="-0.01663">
        <ele>1051.1</ele>
        <time>2017-11-03T13:33:54Z</time>
      </trkpt>
      <trkpt lat="42.85959" lon="-0.01653">
        <ele>1050.4</ele>
        <time>2017-11-03T13:34:00Z</time>
      </trkpt>
      <trkpt lat="42.85955" lon="-0.01644">
        <ele>1051.2</ele>
        <time>2017-11-03T13:34:06Z</time>
      </trkpt>
      <trkpt lat="42.85954" lon="-0.01643">
        <ele>1051.3</ele>
        <time>2017-11-03T13:34:07Z</time>
      </trkpt>
      <trkpt lat="42.85945" lon="-0.01624">
        <ele>1050.4</ele>
        <time>2017-11-03T13:34:21Z</time>
      </trkpt>
      <trkpt lat="42.8594" lon="-0.01617">
        <ele>1050</ele>
        <time>2017-11-03T13:34:27Z</time>
      </trkpt>
      <trkpt lat="42.85935" lon="-0.01607">
        <ele>1049.6</ele>
        <time>2017-11-03T13:34:34Z</time>
      </trkpt>
      <trkpt lat="42.85929" lon="-0.01598">
        <ele>1050.2</ele>
        <time>2017-11-03T13:34:42Z</time>
      </trkpt>
      <trkpt lat="42.85922" lon="-0.01591">
        <ele>1049.2</ele>
        <time>2017-11-03T13:34:49Z</time>
      </trkpt>
      <trkpt lat="42.85915" lon="-0.01586">
        <ele>1049.5</ele>
        <time>2017-11-03T13:34:55Z</time>
      </trkpt>
      <trkpt lat="42.85908" lon="-0.01581">
        <ele>1049.1</ele>
        <time>2017-11-03T13:35:01Z</time>
      </trkpt>
      <trkpt lat="42.85899" lon="-0.01576">
        <ele>1048.1</ele>
        <time>2017-11-03T13:35:08Z</time>
      </trkpt>
      <trkpt lat="42.85898" lon="-0.01575">
        <ele>1048.2</ele>
        <time>2017-11-03T13:35:09Z</time>
      </trkpt>
      <trkpt lat="42.85884" lon="-0.01568">
        <ele>1046.7</ele>
        <time>2017-11-03T13:35:22Z</time>
      </trkpt>
      <trkpt lat="42.85876" lon="-0.01566">
        <ele>1046.8</ele>
        <time>2017-11-03T13:35:29Z</time>
      </trkpt>
      <trkpt lat="42.85867" lon="-0.01565">
        <ele>1046.3</ele>
        <time>2017-11-03T13:35:35Z</time>
      </trkpt>
      <trkpt lat="42.85859" lon="-0.01562">
        <ele>1045.7</ele>
        <time>2017-11-03T13:35:41Z</time>
      </trkpt>
      <trkpt lat="42.85851" lon="-0.0156">
        <ele>1045.7</ele>
        <time>2017-11-03T13:35:48Z</time>
      </trkpt>
      <trkpt lat="42.85842" lon="-0.01557">
        <ele>1046.7</ele>
        <time>2017-11-03T13:35:57Z</time>
      </trkpt>
      <trkpt lat="42.85833" lon="-0.01555">
        <ele>1047.3</ele>
        <time>2017-11-03T13:36:05Z</time>
      </trkpt>
      <trkpt lat="42.85826" lon="-0.01553">
        <ele>1048.3</ele>
        <time>2017-11-03T13:36:10Z</time>
      </trkpt>
      <trkpt lat="42.85824" lon="-0.01552">
        <ele>1048.3</ele>
        <time>2017-11-03T13:36:11Z</time>
      </trkpt>
      <trkpt lat="42.85813" lon="-0.0154">
        <ele>1049</ele>
        <time>2017-11-03T13:36:23Z</time>
      </trkpt>
      <trkpt lat="42.85816" lon="-0.0153">
        <ele>1049.4</ele>
        <time>2017-11-03T13:36:32Z</time>
      </trkpt>
      <trkpt lat="42.85818" lon="-0.01518">
        <ele>1049</ele>
        <time>2017-11-03T13:36:44Z</time>
      </trkpt>
      <trkpt lat="42.85819" lon="-0.0151">
        <ele>1049.6</ele>
        <time>2017-11-03T13:37:11Z</time>
      </trkpt>
      <trkpt lat="42.85819" lon="-0.0151">
        <ele>1049.6</ele>
        <time>2017-11-03T13:37:11Z</time>
      </trkpt>
    </trkseg>
  </trk>
</gpx>